<?xml version="1.0" encoding="UTF-8" standalone="no" ?>
<gpx xmlns="http://www.topografix.com/GPX/1/1" xmlns:xsi="http://www.w3.org/2001/XMLSchema-instance" xsi:schemaLocation="http://www.topografix.com/GPX/1/1 http://www.topografix.com/GPX/1/1/gpx.xsd" version="1.1" creator="VisuGPX - https://www.visugpx.com">
  <metadata>
    <name>VTT Clapouse depuis esparron</name>
    <desc><![CDATA[projet d\\\'automne]]></desc>
  </metadata>
  <trk>
    <name><![CDATA[Tracé]]></name>
    <trkseg>
      <trkpt lat="44.30893" lon="6.15349">
        <ele>1203.7080078</ele>
        <time>2011-09-08T08:42:07Z</time>
      </trkpt>
      <trkpt lat="44.30887" lon="6.15333">
        <ele>1204.6691895</ele>
        <time>2011-09-08T08:42:17Z</time>
      </trkpt>
      <trkpt lat="44.30883" lon="6.15331">
        <ele>1204.6691895</ele>
        <time>2011-09-08T08:42:20Z</time>
      </trkpt>
      <trkpt lat="44.3088" lon="6.15339">
        <ele>1206.111084</ele>
        <time>2011-09-08T08:42:26Z</time>
      </trkpt>
      <trkpt lat="44.30882" lon="6.15347">
        <ele>1206.5917969</ele>
        <time>2011-09-08T08:42:30Z</time>
      </trkpt>
      <trkpt lat="44.30891" lon="6.15368">
        <ele>1207.0725098</ele>
        <time>2011-09-08T08:42:41Z</time>
      </trkpt>
      <trkpt lat="44.30902" lon="6.15408">
        <ele>1209.4758301</ele>
        <time>2011-09-08T08:43:02Z</time>
      </trkpt>
      <trkpt lat="44.30918" lon="6.15456">
        <ele>1211.3984375</ele>
        <time>2011-09-08T08:43:24Z</time>
      </trkpt>
      <trkpt lat="44.30928" lon="6.15499">
        <ele>1211.3984375</ele>
        <time>2011-09-08T08:43:41Z</time>
      </trkpt>
      <trkpt lat="44.30922" lon="6.15551">
        <ele>1213.8017578</ele>
        <time>2011-09-08T08:44:01Z</time>
      </trkpt>
      <trkpt lat="44.30898" lon="6.15601">
        <ele>1214.2824707</ele>
        <time>2011-09-08T08:44:21Z</time>
      </trkpt>
      <trkpt lat="44.30877" lon="6.15643">
        <ele>1215.7246094</ele>
        <time>2011-09-08T08:44:39Z</time>
      </trkpt>
      <trkpt lat="44.30866" lon="6.15673">
        <ele>1216.685791</ele>
        <time>2011-09-08T08:44:50Z</time>
      </trkpt>
      <trkpt lat="44.30859" lon="6.15691">
        <ele>1217.6469727</ele>
        <time>2011-09-08T08:44:58Z</time>
      </trkpt>
      <trkpt lat="44.30859" lon="6.15693">
        <ele>1217.6469727</ele>
        <time>2011-09-08T08:44:59Z</time>
      </trkpt>
      <trkpt lat="44.30858" lon="6.15705">
        <ele>1218.1276855</ele>
        <time>2011-09-08T08:45:05Z</time>
      </trkpt>
      <trkpt lat="44.30849" lon="6.15749">
        <ele>1219.5698242</ele>
        <time>2011-09-08T08:45:22Z</time>
      </trkpt>
      <trkpt lat="44.30829" lon="6.15786">
        <ele>1218.6083984</ele>
        <time>2011-09-08T08:45:33Z</time>
      </trkpt>
      <trkpt lat="44.30824" lon="6.15811">
        <ele>1218.1276855</ele>
        <time>2011-09-08T08:45:38Z</time>
      </trkpt>
      <trkpt lat="44.30814" lon="6.15857">
        <ele>1215.7246094</ele>
        <time>2011-09-08T08:45:47Z</time>
      </trkpt>
      <trkpt lat="44.30819" lon="6.15884">
        <ele>1215.7246094</ele>
        <time>2011-09-08T08:45:52Z</time>
      </trkpt>
      <trkpt lat="44.3082" lon="6.15907">
        <ele>1215.2438965</ele>
        <time>2011-09-08T08:45:57Z</time>
      </trkpt>
      <trkpt lat="44.30808" lon="6.15918">
        <ele>1214.2824707</ele>
        <time>2011-09-08T08:46:09Z</time>
      </trkpt>
      <trkpt lat="44.30808" lon="6.15918">
        <ele>1215.7246094</ele>
        <time>2011-09-08T08:46:50Z</time>
      </trkpt>
      <trkpt lat="44.30808" lon="6.15918">
        <ele>1214.2824707</ele>
        <time>2011-09-08T08:46:52Z</time>
      </trkpt>
      <trkpt lat="44.30808" lon="6.15918">
        <ele>1214.7631836</ele>
        <time>2011-09-08T08:48:14Z</time>
      </trkpt>
      <trkpt lat="44.30808" lon="6.15918">
        <ele>1211.8791504</ele>
        <time>2011-09-08T08:48:30Z</time>
      </trkpt>
      <trkpt lat="44.30808" lon="6.15918">
        <ele>1213.8017578</ele>
        <time>2011-09-08T08:48:32Z</time>
      </trkpt>
      <trkpt lat="44.30808" lon="6.15918">
        <ele>1214.2824707</ele>
        <time>2011-09-08T08:48:49Z</time>
      </trkpt>
      <trkpt lat="44.30808" lon="6.15918">
        <ele>1213.3212891</ele>
        <time>2011-09-08T08:50:06Z</time>
      </trkpt>
      <trkpt lat="44.30808" lon="6.15918">
        <ele>1215.7246094</ele>
        <time>2011-09-08T08:57:52Z</time>
      </trkpt>
      <trkpt lat="44.30808" lon="6.15918">
        <ele>1215.7246094</ele>
        <time>2011-09-08T08:57:53Z</time>
      </trkpt>
      <trkpt lat="44.30797" lon="6.15927">
        <ele>1215.7246094</ele>
        <time>2011-09-08T08:59:31Z</time>
      </trkpt>
      <trkpt lat="44.30768" lon="6.15953">
        <ele>1217.6469727</ele>
        <time>2011-09-08T08:59:52Z</time>
      </trkpt>
      <trkpt lat="44.30755" lon="6.15963">
        <ele>1218.1276855</ele>
        <time>2011-09-08T09:00:02Z</time>
      </trkpt>
      <trkpt lat="44.30751" lon="6.15971">
        <ele>1218.6083984</ele>
        <time>2011-09-08T09:00:08Z</time>
      </trkpt>
      <trkpt lat="44.30741" lon="6.16007">
        <ele>1221.0117188</ele>
        <time>2011-09-08T09:00:25Z</time>
      </trkpt>
      <trkpt lat="44.30735" lon="6.16017">
        <ele>1221.4921875</ele>
        <time>2011-09-08T09:00:32Z</time>
      </trkpt>
      <trkpt lat="44.30728" lon="6.1602">
        <ele>1221.9729004</ele>
        <time>2011-09-08T09:00:37Z</time>
      </trkpt>
      <trkpt lat="44.30704" lon="6.16033">
        <ele>1224.8569336</ele>
        <time>2011-09-08T09:00:59Z</time>
      </trkpt>
      <trkpt lat="44.30685" lon="6.16067">
        <ele>1226.2988281</ele>
        <time>2011-09-08T09:01:20Z</time>
      </trkpt>
      <trkpt lat="44.30657" lon="6.1608">
        <ele>1228.2216797</ele>
        <time>2011-09-08T09:01:41Z</time>
      </trkpt>
      <trkpt lat="44.30638" lon="6.16102">
        <ele>1229.6635742</ele>
        <time>2011-09-08T09:01:58Z</time>
      </trkpt>
      <trkpt lat="44.30613" lon="6.1613">
        <ele>1233.0280762</ele>
        <time>2011-09-08T09:02:22Z</time>
      </trkpt>
      <trkpt lat="44.30584" lon="6.16149">
        <ele>1235.4313965</ele>
        <time>2011-09-08T09:02:47Z</time>
      </trkpt>
      <trkpt lat="44.30556" lon="6.1616">
        <ele>1237.3540039</ele>
        <time>2011-09-08T09:03:10Z</time>
      </trkpt>
      <trkpt lat="44.30532" lon="6.16177">
        <ele>1239.2766113</ele>
        <time>2011-09-08T09:03:31Z</time>
      </trkpt>
      <trkpt lat="44.30512" lon="6.16207">
        <ele>1241.1992188</ele>
        <time>2011-09-08T09:03:51Z</time>
      </trkpt>
      <trkpt lat="44.30498" lon="6.16239">
        <ele>1243.6025391</ele>
        <time>2011-09-08T09:04:11Z</time>
      </trkpt>
      <trkpt lat="44.30493" lon="6.1625">
        <ele>1244.0834961</ele>
        <time>2011-09-08T09:04:18Z</time>
      </trkpt>
      <trkpt lat="44.30492" lon="6.16252">
        <ele>1244.0834961</ele>
        <time>2011-09-08T09:04:20Z</time>
      </trkpt>
      <trkpt lat="44.3048" lon="6.16273">
        <ele>1246.0061035</ele>
        <time>2011-09-08T09:04:34Z</time>
      </trkpt>
      <trkpt lat="44.30462" lon="6.16299">
        <ele>1248.4091797</ele>
        <time>2011-09-08T09:04:55Z</time>
      </trkpt>
      <trkpt lat="44.30447" lon="6.16337">
        <ele>1251.7739258</ele>
        <time>2011-09-08T09:05:18Z</time>
      </trkpt>
      <trkpt lat="44.30432" lon="6.16387">
        <ele>1254.1772461</ele>
        <time>2011-09-08T09:05:45Z</time>
      </trkpt>
      <trkpt lat="44.30414" lon="6.16423">
        <ele>1256.0996094</ele>
        <time>2011-09-08T09:06:06Z</time>
      </trkpt>
      <trkpt lat="44.30389" lon="6.16452">
        <ele>1258.5029297</ele>
        <time>2011-09-08T09:06:29Z</time>
      </trkpt>
      <trkpt lat="44.30366" lon="6.1647">
        <ele>1260.9064941</ele>
        <time>2011-09-08T09:06:48Z</time>
      </trkpt>
      <trkpt lat="44.30343" lon="6.16483">
        <ele>1261.8679199</ele>
        <time>2011-09-08T09:07:05Z</time>
      </trkpt>
      <trkpt lat="44.30317" lon="6.1649">
        <ele>1264.2709961</ele>
        <time>2011-09-08T09:07:25Z</time>
      </trkpt>
      <trkpt lat="44.30294" lon="6.16499">
        <ele>1266.1936035</ele>
        <time>2011-09-08T09:07:42Z</time>
      </trkpt>
      <trkpt lat="44.30274" lon="6.16527">
        <ele>1267.635498</ele>
        <time>2011-09-08T09:08:02Z</time>
      </trkpt>
      <trkpt lat="44.30253" lon="6.16555">
        <ele>1270.0388184</ele>
        <time>2011-09-08T09:08:23Z</time>
      </trkpt>
      <trkpt lat="44.30251" lon="6.16557">
        <ele>1270.0388184</ele>
        <time>2011-09-08T09:08:24Z</time>
      </trkpt>
      <trkpt lat="44.30239" lon="6.16584">
        <ele>1271.9614258</ele>
        <time>2011-09-08T09:08:39Z</time>
      </trkpt>
      <trkpt lat="44.30224" lon="6.1662">
        <ele>1273.8840332</ele>
        <time>2011-09-08T09:08:59Z</time>
      </trkpt>
      <trkpt lat="44.30215" lon="6.16659">
        <ele>1276.7683105</ele>
        <time>2011-09-08T09:09:22Z</time>
      </trkpt>
      <trkpt lat="44.30199" lon="6.16678">
        <ele>1278.2102051</ele>
        <time>2011-09-08T09:09:39Z</time>
      </trkpt>
      <trkpt lat="44.30181" lon="6.16701">
        <ele>1281.0942383</ele>
        <time>2011-09-08T09:09:59Z</time>
      </trkpt>
      <trkpt lat="44.30161" lon="6.16715">
        <ele>1283.9780273</ele>
        <time>2011-09-08T09:10:19Z</time>
      </trkpt>
      <trkpt lat="44.30159" lon="6.16715">
        <ele>1284.9394531</ele>
        <time>2011-09-08T09:10:24Z</time>
      </trkpt>
      <trkpt lat="44.30132" lon="6.1672">
        <ele>1287.3425293</ele>
        <time>2011-09-08T09:10:46Z</time>
      </trkpt>
      <trkpt lat="44.30116" lon="6.1673">
        <ele>1289.2651367</ele>
        <time>2011-09-08T09:10:59Z</time>
      </trkpt>
      <trkpt lat="44.30103" lon="6.16748">
        <ele>1290.7070313</ele>
        <time>2011-09-08T09:11:11Z</time>
      </trkpt>
      <trkpt lat="44.30098" lon="6.16767">
        <ele>1292.1494141</ele>
        <time>2011-09-08T09:11:22Z</time>
      </trkpt>
      <trkpt lat="44.30086" lon="6.16787">
        <ele>1294.0720215</ele>
        <time>2011-09-08T09:11:38Z</time>
      </trkpt>
      <trkpt lat="44.3008" lon="6.16791">
        <ele>1295.0332031</ele>
        <time>2011-09-08T09:11:43Z</time>
      </trkpt>
      <trkpt lat="44.30073" lon="6.168">
        <ele>1295.9946289</ele>
        <time>2011-09-08T09:11:50Z</time>
      </trkpt>
      <trkpt lat="44.3007" lon="6.16804">
        <ele>1295.9946289</ele>
        <time>2011-09-08T09:11:53Z</time>
      </trkpt>
      <trkpt lat="44.30067" lon="6.16811">
        <ele>1295.9946289</ele>
        <time>2011-09-08T09:11:58Z</time>
      </trkpt>
      <trkpt lat="44.30063" lon="6.16833">
        <ele>1297.4365234</ele>
        <time>2011-09-08T09:12:09Z</time>
      </trkpt>
      <trkpt lat="44.30056" lon="6.16876">
        <ele>1299.3591309</ele>
        <time>2011-09-08T09:12:30Z</time>
      </trkpt>
      <trkpt lat="44.30045" lon="6.16909">
        <ele>1302.2429199</ele>
        <time>2011-09-08T09:12:49Z</time>
      </trkpt>
      <trkpt lat="44.30028" lon="6.16945">
        <ele>1304.1657715</ele>
        <time>2011-09-08T09:13:12Z</time>
      </trkpt>
      <trkpt lat="44.30016" lon="6.16989">
        <ele>1306.5688477</ele>
        <time>2011-09-08T09:13:35Z</time>
      </trkpt>
      <trkpt lat="44.30002" lon="6.17028">
        <ele>1308.9724121</ele>
        <time>2011-09-08T09:13:58Z</time>
      </trkpt>
      <trkpt lat="44.29998" lon="6.17035">
        <ele>1309.9335938</ele>
        <time>2011-09-08T09:14:03Z</time>
      </trkpt>
      <trkpt lat="44.29984" lon="6.17064">
        <ele>1311.3757324</ele>
        <time>2011-09-08T09:14:21Z</time>
      </trkpt>
      <trkpt lat="44.29977" lon="6.17092">
        <ele>1312.817627</ele>
        <time>2011-09-08T09:14:36Z</time>
      </trkpt>
      <trkpt lat="44.29983" lon="6.17137">
        <ele>1314.7402344</ele>
        <time>2011-09-08T09:14:57Z</time>
      </trkpt>
      <trkpt lat="44.2998" lon="6.17152">
        <ele>1316.1821289</ele>
        <time>2011-09-08T09:15:05Z</time>
      </trkpt>
      <trkpt lat="44.29979" lon="6.17158">
        <ele>1316.1821289</ele>
        <time>2011-09-08T09:15:08Z</time>
      </trkpt>
      <trkpt lat="44.29977" lon="6.17184">
        <ele>1318.5854492</ele>
        <time>2011-09-08T09:15:23Z</time>
      </trkpt>
      <trkpt lat="44.29975" lon="6.172">
        <ele>1321.4692383</ele>
        <time>2011-09-08T09:15:46Z</time>
      </trkpt>
      <trkpt lat="44.29974" lon="6.17228">
        <ele>1322.4306641</ele>
        <time>2011-09-08T09:15:54Z</time>
      </trkpt>
      <trkpt lat="44.29973" lon="6.17242">
        <ele>1323.3920898</ele>
        <time>2011-09-08T09:15:59Z</time>
      </trkpt>
      <trkpt lat="44.29973" lon="6.17246">
        <ele>1323.8725586</ele>
        <time>2011-09-08T09:16:02Z</time>
      </trkpt>
      <trkpt lat="44.29971" lon="6.17257">
        <ele>1325.3146973</ele>
        <time>2011-09-08T09:16:15Z</time>
      </trkpt>
      <trkpt lat="44.29955" lon="6.1729">
        <ele>1327.7180176</ele>
        <time>2011-09-08T09:16:38Z</time>
      </trkpt>
      <trkpt lat="44.29955" lon="6.1729">
        <ele>1328.6794434</ele>
        <time>2011-09-08T09:16:46Z</time>
      </trkpt>
      <trkpt lat="44.29933" lon="6.17338">
        <ele>1331.5632324</ele>
        <time>2011-09-08T09:17:09Z</time>
      </trkpt>
      <trkpt lat="44.29915" lon="6.17378">
        <ele>1334.4472656</ele>
        <time>2011-09-08T09:17:36Z</time>
      </trkpt>
      <trkpt lat="44.29899" lon="6.17398">
        <ele>1335.8891602</ele>
        <time>2011-09-08T09:17:53Z</time>
      </trkpt>
      <trkpt lat="44.29878" lon="6.17434">
        <ele>1338.7731934</ele>
        <time>2011-09-08T09:18:17Z</time>
      </trkpt>
      <trkpt lat="44.29878" lon="6.17434">
        <ele>1338.7731934</ele>
        <time>2011-09-08T09:18:18Z</time>
      </trkpt>
      <trkpt lat="44.29856" lon="6.17459">
        <ele>1341.1765137</ele>
        <time>2011-09-08T09:18:39Z</time>
      </trkpt>
      <trkpt lat="44.29844" lon="6.17501">
        <ele>1343.0991211</ele>
        <time>2011-09-08T09:19:00Z</time>
      </trkpt>
      <trkpt lat="44.29837" lon="6.17554">
        <ele>1346.9443359</ele>
        <time>2011-09-08T09:19:28Z</time>
      </trkpt>
      <trkpt lat="44.29827" lon="6.17594">
        <ele>1349.3476563</ele>
        <time>2011-09-08T09:19:53Z</time>
      </trkpt>
      <trkpt lat="44.29827" lon="6.176">
        <ele>1350.309082</ele>
        <time>2011-09-08T09:19:56Z</time>
      </trkpt>
      <trkpt lat="44.29837" lon="6.17644">
        <ele>1351.2702637</ele>
        <time>2011-09-08T09:20:18Z</time>
      </trkpt>
      <trkpt lat="44.29831" lon="6.17684">
        <ele>1351.2702637</ele>
        <time>2011-09-08T09:20:34Z</time>
      </trkpt>
      <trkpt lat="44.29816" lon="6.17728">
        <ele>1350.7895508</ele>
        <time>2011-09-08T09:20:50Z</time>
      </trkpt>
      <trkpt lat="44.29817" lon="6.17774">
        <ele>1351.7509766</ele>
        <time>2011-09-08T09:21:06Z</time>
      </trkpt>
      <trkpt lat="44.29834" lon="6.17813">
        <ele>1353.1928711</ele>
        <time>2011-09-08T09:21:22Z</time>
      </trkpt>
      <trkpt lat="44.29843" lon="6.17844">
        <ele>1354.6347656</ele>
        <time>2011-09-08T09:21:37Z</time>
      </trkpt>
      <trkpt lat="44.29847" lon="6.17892">
        <ele>1356.0769043</ele>
        <time>2011-09-08T09:21:58Z</time>
      </trkpt>
      <trkpt lat="44.29864" lon="6.17927">
        <ele>1355.5961914</ele>
        <time>2011-09-08T09:22:10Z</time>
      </trkpt>
      <trkpt lat="44.29863" lon="6.17932">
        <ele>1354.6347656</ele>
        <time>2011-09-08T09:22:15Z</time>
      </trkpt>
      <trkpt lat="44.29844" lon="6.17938">
        <ele>1355.5961914</ele>
        <time>2011-09-08T09:22:32Z</time>
      </trkpt>
      <trkpt lat="44.29817" lon="6.17961">
        <ele>1358.4802246</ele>
        <time>2011-09-08T09:22:50Z</time>
      </trkpt>
      <trkpt lat="44.29806" lon="6.17989">
        <ele>1361.3642578</ele>
        <time>2011-09-08T09:23:08Z</time>
      </trkpt>
      <trkpt lat="44.29802" lon="6.17998">
        <ele>1362.3254395</ele>
        <time>2011-09-08T09:23:14Z</time>
      </trkpt>
      <trkpt lat="44.29796" lon="6.18012">
        <ele>1363.2868652</ele>
        <time>2011-09-08T09:23:22Z</time>
      </trkpt>
      <trkpt lat="44.29794" lon="6.18018">
        <ele>1363.2868652</ele>
        <time>2011-09-08T09:23:25Z</time>
      </trkpt>
      <trkpt lat="44.29784" lon="6.18041">
        <ele>1363.767334</ele>
        <time>2011-09-08T09:23:44Z</time>
      </trkpt>
      <trkpt lat="44.29784" lon="6.18041">
        <ele>1364.2480469</ele>
        <time>2011-09-08T09:24:32Z</time>
      </trkpt>
      <trkpt lat="44.29777" lon="6.18054">
        <ele>1362.3254395</ele>
        <time>2011-09-08T09:25:23Z</time>
      </trkpt>
      <trkpt lat="44.29761" lon="6.181">
        <ele>1360.8835449</ele>
        <time>2011-09-08T09:25:34Z</time>
      </trkpt>
      <trkpt lat="44.29733" lon="6.18125">
        <ele>1358.4802246</ele>
        <time>2011-09-08T09:25:44Z</time>
      </trkpt>
      <trkpt lat="44.29712" lon="6.18138">
        <ele>1357.519043</ele>
        <time>2011-09-08T09:25:49Z</time>
      </trkpt>
      <trkpt lat="44.29664" lon="6.18142">
        <ele>1357.0383301</ele>
        <time>2011-09-08T09:26:02Z</time>
      </trkpt>
      <trkpt lat="44.29653" lon="6.18141">
        <ele>1356.5576172</ele>
        <time>2011-09-08T09:26:12Z</time>
      </trkpt>
      <trkpt lat="44.29636" lon="6.1814">
        <ele>1357.9997559</ele>
        <time>2011-09-08T09:26:36Z</time>
      </trkpt>
      <trkpt lat="44.2961" lon="6.1815">
        <ele>1358.9609375</ele>
        <time>2011-09-08T09:26:50Z</time>
      </trkpt>
      <trkpt lat="44.29586" lon="6.18163">
        <ele>1359.9221191</ele>
        <time>2011-09-08T09:27:06Z</time>
      </trkpt>
      <trkpt lat="44.2958" lon="6.18166">
        <ele>1360.8835449</ele>
        <time>2011-09-08T09:27:09Z</time>
      </trkpt>
      <trkpt lat="44.29544" lon="6.18201">
        <ele>1360.8835449</ele>
        <time>2011-09-08T09:27:28Z</time>
      </trkpt>
      <trkpt lat="44.29533" lon="6.18227">
        <ele>1360.8835449</ele>
        <time>2011-09-08T09:27:43Z</time>
      </trkpt>
      <trkpt lat="44.29533" lon="6.18227">
        <ele>1360.8835449</ele>
        <time>2011-09-08T09:27:54Z</time>
      </trkpt>
      <trkpt lat="44.29512" lon="6.18241">
        <ele>1361.3642578</ele>
        <time>2011-09-08T09:28:08Z</time>
      </trkpt>
      <trkpt lat="44.29498" lon="6.18257">
        <ele>1363.767334</ele>
        <time>2011-09-08T09:28:19Z</time>
      </trkpt>
      <trkpt lat="44.29476" lon="6.18283">
        <ele>1365.2094727</ele>
        <time>2011-09-08T09:28:40Z</time>
      </trkpt>
      <trkpt lat="44.29474" lon="6.18286">
        <ele>1365.2094727</ele>
        <time>2011-09-08T09:28:42Z</time>
      </trkpt>
      <trkpt lat="44.29471" lon="6.18291">
        <ele>1365.6901855</ele>
        <time>2011-09-08T09:28:46Z</time>
      </trkpt>
      <trkpt lat="44.29468" lon="6.18296">
        <ele>1366.1706543</ele>
        <time>2011-09-08T09:28:48Z</time>
      </trkpt>
      <trkpt lat="44.29465" lon="6.18302">
        <ele>1366.6513672</ele>
        <time>2011-09-08T09:28:52Z</time>
      </trkpt>
      <trkpt lat="44.29463" lon="6.18305">
        <ele>1367.1320801</ele>
        <time>2011-09-08T09:28:56Z</time>
      </trkpt>
      <trkpt lat="44.29459" lon="6.18319">
        <ele>1367.6125488</ele>
        <time>2011-09-08T09:29:01Z</time>
      </trkpt>
      <trkpt lat="44.29456" lon="6.18332">
        <ele>1369.0546875</ele>
        <time>2011-09-08T09:29:12Z</time>
      </trkpt>
      <trkpt lat="44.29454" lon="6.18342">
        <ele>1369.0546875</ele>
        <time>2011-09-08T09:29:16Z</time>
      </trkpt>
      <trkpt lat="44.29446" lon="6.18364">
        <ele>1372.4194336</ele>
        <time>2011-09-08T09:29:33Z</time>
      </trkpt>
      <trkpt lat="44.29428" lon="6.18382">
        <ele>1373.3808594</ele>
        <time>2011-09-08T09:29:50Z</time>
      </trkpt>
      <trkpt lat="44.29402" lon="6.18404">
        <ele>1375.3032227</ele>
        <time>2011-09-08T09:30:12Z</time>
      </trkpt>
      <trkpt lat="44.294" lon="6.18407">
        <ele>1375.3032227</ele>
        <time>2011-09-08T09:30:14Z</time>
      </trkpt>
      <trkpt lat="44.29379" lon="6.18447">
        <ele>1377.706543</ele>
        <time>2011-09-08T09:30:39Z</time>
      </trkpt>
      <trkpt lat="44.29359" lon="6.18466">
        <ele>1378.6679688</ele>
        <time>2011-09-08T09:30:56Z</time>
      </trkpt>
      <trkpt lat="44.29344" lon="6.18503">
        <ele>1381.0712891</ele>
        <time>2011-09-08T09:31:17Z</time>
      </trkpt>
      <trkpt lat="44.29318" lon="6.18528">
        <ele>1382.9936523</ele>
        <time>2011-09-08T09:31:40Z</time>
      </trkpt>
      <trkpt lat="44.29297" lon="6.18547">
        <ele>1384.9165039</ele>
        <time>2011-09-08T09:32:00Z</time>
      </trkpt>
      <trkpt lat="44.29279" lon="6.18574">
        <ele>1386.8388672</ele>
        <time>2011-09-08T09:32:22Z</time>
      </trkpt>
      <trkpt lat="44.29274" lon="6.18575">
        <ele>1386.8388672</ele>
        <time>2011-09-08T09:32:26Z</time>
      </trkpt>
      <trkpt lat="44.29271" lon="6.18565">
        <ele>1387.800293</ele>
        <time>2011-09-08T09:32:33Z</time>
      </trkpt>
      <trkpt lat="44.29285" lon="6.18529">
        <ele>1389.7231445</ele>
        <time>2011-09-08T09:32:54Z</time>
      </trkpt>
      <trkpt lat="44.29292" lon="6.18514">
        <ele>1390.6843262</ele>
        <time>2011-09-08T09:33:04Z</time>
      </trkpt>
      <trkpt lat="44.29294" lon="6.1851">
        <ele>1391.1650391</ele>
        <time>2011-09-08T09:33:07Z</time>
      </trkpt>
      <trkpt lat="44.29306" lon="6.1848">
        <ele>1393.0876465</ele>
        <time>2011-09-08T09:33:28Z</time>
      </trkpt>
      <trkpt lat="44.2931" lon="6.18442">
        <ele>1395.9716797</ele>
        <time>2011-09-08T09:33:52Z</time>
      </trkpt>
      <trkpt lat="44.2931" lon="6.1844">
        <ele>1396.4523926</ele>
        <time>2011-09-08T09:33:57Z</time>
      </trkpt>
      <trkpt lat="44.29293" lon="6.18417">
        <ele>1398.3747559</ele>
        <time>2011-09-08T09:34:14Z</time>
      </trkpt>
      <trkpt lat="44.29275" lon="6.18403">
        <ele>1400.2976074</ele>
        <time>2011-09-08T09:34:33Z</time>
      </trkpt>
      <trkpt lat="44.29264" lon="6.18391">
        <ele>1400.7780762</ele>
        <time>2011-09-08T09:34:44Z</time>
      </trkpt>
      <trkpt lat="44.2925" lon="6.18372">
        <ele>1402.2199707</ele>
        <time>2011-09-08T09:35:00Z</time>
      </trkpt>
      <trkpt lat="44.29249" lon="6.18369">
        <ele>1402.7006836</ele>
        <time>2011-09-08T09:35:03Z</time>
      </trkpt>
      <trkpt lat="44.29251" lon="6.18357">
        <ele>1403.1813965</ele>
        <time>2011-09-08T09:35:07Z</time>
      </trkpt>
      <trkpt lat="44.29269" lon="6.1835">
        <ele>1404.6235352</ele>
        <time>2011-09-08T09:35:20Z</time>
      </trkpt>
      <trkpt lat="44.29277" lon="6.18334">
        <ele>1405.5849609</ele>
        <time>2011-09-08T09:35:32Z</time>
      </trkpt>
      <trkpt lat="44.2928" lon="6.18324">
        <ele>1406.5461426</ele>
        <time>2011-09-08T09:35:39Z</time>
      </trkpt>
      <trkpt lat="44.29286" lon="6.18286">
        <ele>1408.9494629</ele>
        <time>2011-09-08T09:36:02Z</time>
      </trkpt>
      <trkpt lat="44.2929" lon="6.18266">
        <ele>1410.3913574</ele>
        <time>2011-09-08T09:36:13Z</time>
      </trkpt>
      <trkpt lat="44.29299" lon="6.18232">
        <ele>1412.3139648</ele>
        <time>2011-09-08T09:36:35Z</time>
      </trkpt>
      <trkpt lat="44.29299" lon="6.18226">
        <ele>1412.7946777</ele>
        <time>2011-09-08T09:36:42Z</time>
      </trkpt>
      <trkpt lat="44.29294" lon="6.18208">
        <ele>1414.2365723</ele>
        <time>2011-09-08T09:36:57Z</time>
      </trkpt>
      <trkpt lat="44.29294" lon="6.18208">
        <ele>1414.2365723</ele>
        <time>2011-09-08T09:37:25Z</time>
      </trkpt>
      <trkpt lat="44.29292" lon="6.18211">
        <ele>1414.2365723</ele>
        <time>2011-09-08T09:37:28Z</time>
      </trkpt>
      <trkpt lat="44.2929" lon="6.18214">
        <ele>1414.7172852</ele>
        <time>2011-09-08T09:37:30Z</time>
      </trkpt>
      <trkpt lat="44.29288" lon="6.18219">
        <ele>1414.7172852</ele>
        <time>2011-09-08T09:37:33Z</time>
      </trkpt>
      <trkpt lat="44.29282" lon="6.18229">
        <ele>1414.7172852</ele>
        <time>2011-09-08T09:37:40Z</time>
      </trkpt>
      <trkpt lat="44.29278" lon="6.18236">
        <ele>1415.6787109</ele>
        <time>2011-09-08T09:37:45Z</time>
      </trkpt>
      <trkpt lat="44.29275" lon="6.18241">
        <ele>1415.6787109</ele>
        <time>2011-09-08T09:37:48Z</time>
      </trkpt>
      <trkpt lat="44.29273" lon="6.18243">
        <ele>1417.1206055</ele>
        <time>2011-09-08T09:38:09Z</time>
      </trkpt>
      <trkpt lat="44.29273" lon="6.18243">
        <ele>1416.6398926</ele>
        <time>2011-09-08T09:38:21Z</time>
      </trkpt>
      <trkpt lat="44.29249" lon="6.18265">
        <ele>1418.5625</ele>
        <time>2011-09-08T09:38:41Z</time>
      </trkpt>
      <trkpt lat="44.29228" lon="6.18267">
        <ele>1420.0046387</ele>
        <time>2011-09-08T09:38:58Z</time>
      </trkpt>
      <trkpt lat="44.29207" lon="6.18262">
        <ele>1422.407959</ele>
        <time>2011-09-08T09:39:15Z</time>
      </trkpt>
      <trkpt lat="44.29199" lon="6.1826">
        <ele>1422.8886719</ele>
        <time>2011-09-08T09:39:22Z</time>
      </trkpt>
      <trkpt lat="44.29182" lon="6.18256">
        <ele>1423.8498535</ele>
        <time>2011-09-08T09:39:33Z</time>
      </trkpt>
      <trkpt lat="44.29175" lon="6.18257">
        <ele>1425.291748</ele>
        <time>2011-09-08T09:39:39Z</time>
      </trkpt>
      <trkpt lat="44.29168" lon="6.18263">
        <ele>1425.7724609</ele>
        <time>2011-09-08T09:39:43Z</time>
      </trkpt>
      <trkpt lat="44.29164" lon="6.18304">
        <ele>1427.6950684</ele>
        <time>2011-09-08T09:40:03Z</time>
      </trkpt>
      <trkpt lat="44.29155" lon="6.18338">
        <ele>1430.0983887</ele>
        <time>2011-09-08T09:40:22Z</time>
      </trkpt>
      <trkpt lat="44.29154" lon="6.18364">
        <ele>1432.501709</ele>
        <time>2011-09-08T09:40:42Z</time>
      </trkpt>
      <trkpt lat="44.29162" lon="6.18385">
        <ele>1433.4628906</ele>
        <time>2011-09-08T09:40:50Z</time>
      </trkpt>
      <trkpt lat="44.29163" lon="6.18388">
        <ele>1433.9436035</ele>
        <time>2011-09-08T09:40:55Z</time>
      </trkpt>
      <trkpt lat="44.29163" lon="6.18388">
        <ele>1435.385498</ele>
        <time>2011-09-08T09:41:07Z</time>
      </trkpt>
      <trkpt lat="44.29163" lon="6.18388">
        <ele>1435.8662109</ele>
        <time>2011-09-08T09:41:10Z</time>
      </trkpt>
      <trkpt lat="44.29159" lon="6.18417">
        <ele>1436.347168</ele>
        <time>2011-09-08T09:41:14Z</time>
      </trkpt>
      <trkpt lat="44.29159" lon="6.18417">
        <ele>1436.8276367</ele>
        <time>2011-09-08T09:41:17Z</time>
      </trkpt>
      <trkpt lat="44.29155" lon="6.18421">
        <ele>1437.3083496</ele>
        <time>2011-09-08T09:41:21Z</time>
      </trkpt>
      <trkpt lat="44.29132" lon="6.18428">
        <ele>1439.230957</ele>
        <time>2011-09-08T09:41:42Z</time>
      </trkpt>
      <trkpt lat="44.29115" lon="6.18417">
        <ele>1441.1535645</ele>
        <time>2011-09-08T09:41:59Z</time>
      </trkpt>
      <trkpt lat="44.29106" lon="6.18414">
        <ele>1441.6342773</ele>
        <time>2011-09-08T09:42:05Z</time>
      </trkpt>
      <trkpt lat="44.29075" lon="6.18435">
        <ele>1443.5568848</ele>
        <time>2011-09-08T09:42:29Z</time>
      </trkpt>
      <trkpt lat="44.29054" lon="6.18453">
        <ele>1444.9987793</ele>
        <time>2011-09-08T09:42:47Z</time>
      </trkpt>
      <trkpt lat="44.29037" lon="6.18476">
        <ele>1445.9602051</ele>
        <time>2011-09-08T09:43:03Z</time>
      </trkpt>
      <trkpt lat="44.29026" lon="6.18482">
        <ele>1446.9213867</ele>
        <time>2011-09-08T09:43:12Z</time>
      </trkpt>
      <trkpt lat="44.28995" lon="6.18494">
        <ele>1448.8439941</ele>
        <time>2011-09-08T09:43:35Z</time>
      </trkpt>
      <trkpt lat="44.28974" lon="6.185">
        <ele>1450.2861328</ele>
        <time>2011-09-08T09:43:50Z</time>
      </trkpt>
      <trkpt lat="44.28937" lon="6.18505">
        <ele>1451.2473145</ele>
        <time>2011-09-08T09:44:15Z</time>
      </trkpt>
      <trkpt lat="44.28907" lon="6.18494">
        <ele>1450.2861328</ele>
        <time>2011-09-08T09:44:32Z</time>
      </trkpt>
      <trkpt lat="44.28878" lon="6.18461">
        <ele>1449.324707</ele>
        <time>2011-09-08T09:44:47Z</time>
      </trkpt>
      <trkpt lat="44.28877" lon="6.18458">
        <ele>1449.324707</ele>
        <time>2011-09-08T09:44:48Z</time>
      </trkpt>
      <trkpt lat="44.28864" lon="6.18481">
        <ele>1448.8439941</ele>
        <time>2011-09-08T09:44:55Z</time>
      </trkpt>
      <trkpt lat="44.28841" lon="6.18526">
        <ele>1447.8828125</ele>
        <time>2011-09-08T09:45:09Z</time>
      </trkpt>
      <trkpt lat="44.28803" lon="6.18565">
        <ele>1446.9213867</ele>
        <time>2011-09-08T09:45:25Z</time>
      </trkpt>
      <trkpt lat="44.2877" lon="6.1859">
        <ele>1445.9602051</ele>
        <time>2011-09-08T09:45:39Z</time>
      </trkpt>
      <trkpt lat="44.28748" lon="6.18604">
        <ele>1446.440918</ele>
        <time>2011-09-08T09:45:53Z</time>
      </trkpt>
      <trkpt lat="44.287" lon="6.18622">
        <ele>1446.440918</ele>
        <time>2011-09-08T09:46:12Z</time>
      </trkpt>
      <trkpt lat="44.28674" lon="6.18618">
        <ele>1446.440918</ele>
        <time>2011-09-08T09:46:21Z</time>
      </trkpt>
      <trkpt lat="44.28669" lon="6.18619">
        <ele>1445.9602051</ele>
        <time>2011-09-08T09:46:23Z</time>
      </trkpt>
      <trkpt lat="44.28663" lon="6.1864">
        <ele>1445.4794922</ele>
        <time>2011-09-08T09:46:29Z</time>
      </trkpt>
      <trkpt lat="44.2869" lon="6.18684">
        <ele>1445.9602051</ele>
        <time>2011-09-08T09:46:45Z</time>
      </trkpt>
      <trkpt lat="44.28723" lon="6.18727">
        <ele>1446.9213867</ele>
        <time>2011-09-08T09:47:05Z</time>
      </trkpt>
      <trkpt lat="44.28739" lon="6.18758">
        <ele>1447.4020996</ele>
        <time>2011-09-08T09:47:19Z</time>
      </trkpt>
      <trkpt lat="44.28736" lon="6.18802">
        <ele>1448.8439941</ele>
        <time>2011-09-08T09:47:38Z</time>
      </trkpt>
      <trkpt lat="44.28725" lon="6.18834">
        <ele>1452.2087402</ele>
        <time>2011-09-08T09:47:59Z</time>
      </trkpt>
      <trkpt lat="44.28717" lon="6.18869">
        <ele>1455.0927734</ele>
        <time>2011-09-08T09:48:22Z</time>
      </trkpt>
      <trkpt lat="44.28676" lon="6.18876">
        <ele>1457.9768066</ele>
        <time>2011-09-08T09:48:47Z</time>
      </trkpt>
      <trkpt lat="44.28649" lon="6.18864">
        <ele>1460.3798828</ele>
        <time>2011-09-08T09:49:08Z</time>
      </trkpt>
      <trkpt lat="44.28628" lon="6.1886">
        <ele>1462.3024902</ele>
        <time>2011-09-08T09:49:25Z</time>
      </trkpt>
      <trkpt lat="44.28623" lon="6.18863">
        <ele>1462.3024902</ele>
        <time>2011-09-08T09:49:29Z</time>
      </trkpt>
      <trkpt lat="44.28617" lon="6.18897">
        <ele>1464.2250977</ele>
        <time>2011-09-08T09:49:48Z</time>
      </trkpt>
      <trkpt lat="44.28598" lon="6.18921">
        <ele>1466.1477051</ele>
        <time>2011-09-08T09:50:09Z</time>
      </trkpt>
      <trkpt lat="44.2858" lon="6.18908">
        <ele>1467.5895996</ele>
        <time>2011-09-08T09:50:25Z</time>
      </trkpt>
      <trkpt lat="44.28573" lon="6.18883">
        <ele>1469.5126953</ele>
        <time>2011-09-08T09:50:40Z</time>
      </trkpt>
      <trkpt lat="44.28568" lon="6.18865">
        <ele>1471.4350586</ele>
        <time>2011-09-08T09:50:51Z</time>
      </trkpt>
      <trkpt lat="44.28565" lon="6.18856">
        <ele>1471.9157715</ele>
        <time>2011-09-08T09:50:56Z</time>
      </trkpt>
      <trkpt lat="44.28563" lon="6.18851">
        <ele>1471.9157715</ele>
        <time>2011-09-08T09:50:59Z</time>
      </trkpt>
      <trkpt lat="44.28561" lon="6.18843">
        <ele>1472.8771973</ele>
        <time>2011-09-08T09:51:04Z</time>
      </trkpt>
      <trkpt lat="44.28567" lon="6.18806">
        <ele>1474.3190918</ele>
        <time>2011-09-08T09:51:22Z</time>
      </trkpt>
      <trkpt lat="44.28567" lon="6.18804">
        <ele>1474.7998047</ele>
        <time>2011-09-08T09:51:23Z</time>
      </trkpt>
      <trkpt lat="44.28581" lon="6.18767">
        <ele>1476.7224121</ele>
        <time>2011-09-08T09:51:44Z</time>
      </trkpt>
      <trkpt lat="44.28596" lon="6.18746">
        <ele>1477.6835938</ele>
        <time>2011-09-08T09:51:58Z</time>
      </trkpt>
      <trkpt lat="44.28592" lon="6.18715">
        <ele>1479.6062012</ele>
        <time>2011-09-08T09:52:17Z</time>
      </trkpt>
      <trkpt lat="44.28555" lon="6.18692">
        <ele>1481.5288086</ele>
        <time>2011-09-08T09:52:42Z</time>
      </trkpt>
      <trkpt lat="44.28521" lon="6.18675">
        <ele>1482.4902344</ele>
        <time>2011-09-08T09:53:02Z</time>
      </trkpt>
      <trkpt lat="44.28492" lon="6.18654">
        <ele>1483.451416</ele>
        <time>2011-09-08T09:53:21Z</time>
      </trkpt>
      <trkpt lat="44.28486" lon="6.18647">
        <ele>1483.9321289</ele>
        <time>2011-09-08T09:53:26Z</time>
      </trkpt>
      <trkpt lat="44.28477" lon="6.18636">
        <ele>1483.9321289</ele>
        <time>2011-09-08T09:53:33Z</time>
      </trkpt>
      <trkpt lat="44.2846" lon="6.18593">
        <ele>1485.3742676</ele>
        <time>2011-09-08T09:53:54Z</time>
      </trkpt>
      <trkpt lat="44.28458" lon="6.18548">
        <ele>1486.8161621</ele>
        <time>2011-09-08T09:54:14Z</time>
      </trkpt>
      <trkpt lat="44.2845" lon="6.18511">
        <ele>1488.7390137</ele>
        <time>2011-09-08T09:54:33Z</time>
      </trkpt>
      <trkpt lat="44.28425" lon="6.18475">
        <ele>1492.1035156</ele>
        <time>2011-09-08T09:54:54Z</time>
      </trkpt>
      <trkpt lat="44.28399" lon="6.1846">
        <ele>1494.026123</ele>
        <time>2011-09-08T09:55:11Z</time>
      </trkpt>
      <trkpt lat="44.28363" lon="6.18444">
        <ele>1496.4294434</ele>
        <time>2011-09-08T09:55:34Z</time>
      </trkpt>
      <trkpt lat="44.28336" lon="6.18424">
        <ele>1497.8713379</ele>
        <time>2011-09-08T09:55:53Z</time>
      </trkpt>
      <trkpt lat="44.28328" lon="6.18394">
        <ele>1500.2749023</ele>
        <time>2011-09-08T09:56:12Z</time>
      </trkpt>
      <trkpt lat="44.28349" lon="6.1839">
        <ele>1502.1972656</ele>
        <time>2011-09-08T09:56:27Z</time>
      </trkpt>
      <trkpt lat="44.2837" lon="6.18387">
        <ele>1503.6394043</ele>
        <time>2011-09-08T09:56:43Z</time>
      </trkpt>
      <trkpt lat="44.28374" lon="6.18386">
        <ele>1504.1201172</ele>
        <time>2011-09-08T09:56:46Z</time>
      </trkpt>
      <trkpt lat="44.28395" lon="6.18366">
        <ele>1506.0424805</ele>
        <time>2011-09-08T09:57:06Z</time>
      </trkpt>
      <trkpt lat="44.284" lon="6.18331">
        <ele>1508.4458008</ele>
        <time>2011-09-08T09:57:27Z</time>
      </trkpt>
      <trkpt lat="44.28398" lon="6.18325">
        <ele>1508.9265137</ele>
        <time>2011-09-08T09:57:31Z</time>
      </trkpt>
      <trkpt lat="44.28413" lon="6.18303">
        <ele>1510.3684082</ele>
        <time>2011-09-08T09:57:46Z</time>
      </trkpt>
      <trkpt lat="44.28432" lon="6.18307">
        <ele>1511.8105469</ele>
        <time>2011-09-08T09:57:58Z</time>
      </trkpt>
      <trkpt lat="44.28437" lon="6.18309">
        <ele>1512.2910156</ele>
        <time>2011-09-08T09:58:03Z</time>
      </trkpt>
      <trkpt lat="44.2847" lon="6.18309">
        <ele>1515.6557617</ele>
        <time>2011-09-08T09:58:29Z</time>
      </trkpt>
      <trkpt lat="44.28482" lon="6.18304">
        <ele>1516.6171875</ele>
        <time>2011-09-08T09:58:38Z</time>
      </trkpt>
      <trkpt lat="44.28495" lon="6.18298">
        <ele>1518.5397949</ele>
        <time>2011-09-08T09:58:50Z</time>
      </trkpt>
      <trkpt lat="44.28517" lon="6.18279">
        <ele>1520.4624023</ele>
        <time>2011-09-08T09:59:09Z</time>
      </trkpt>
      <trkpt lat="44.28536" lon="6.18267">
        <ele>1521.9042969</ele>
        <time>2011-09-08T09:59:24Z</time>
      </trkpt>
      <trkpt lat="44.28566" lon="6.18272">
        <ele>1525.2687988</ele>
        <time>2011-09-08T09:59:48Z</time>
      </trkpt>
      <trkpt lat="44.28589" lon="6.1827">
        <ele>1527.1916504</ele>
        <time>2011-09-08T10:00:06Z</time>
      </trkpt>
      <trkpt lat="44.28602" lon="6.18259">
        <ele>1528.6335449</ele>
        <time>2011-09-08T10:00:18Z</time>
      </trkpt>
      <trkpt lat="44.28608" lon="6.1822">
        <ele>1530.5561523</ele>
        <time>2011-09-08T10:00:41Z</time>
      </trkpt>
      <trkpt lat="44.28606" lon="6.18178">
        <ele>1532.9594727</ele>
        <time>2011-09-08T10:01:06Z</time>
      </trkpt>
      <trkpt lat="44.28607" lon="6.18168">
        <ele>1533.9208984</ele>
        <time>2011-09-08T10:01:11Z</time>
      </trkpt>
      <trkpt lat="44.28598" lon="6.18163">
        <ele>1533.9208984</ele>
        <time>2011-09-08T10:01:17Z</time>
      </trkpt>
      <trkpt lat="44.28581" lon="6.18177">
        <ele>1536.3242188</ele>
        <time>2011-09-08T10:01:29Z</time>
      </trkpt>
      <trkpt lat="44.28555" lon="6.18202">
        <ele>1538.2468262</ele>
        <time>2011-09-08T10:01:51Z</time>
      </trkpt>
      <trkpt lat="44.28535" lon="6.18202">
        <ele>1539.6887207</ele>
        <time>2011-09-08T10:02:05Z</time>
      </trkpt>
      <trkpt lat="44.28528" lon="6.18202">
        <ele>1539.6887207</ele>
        <time>2011-09-08T10:02:18Z</time>
      </trkpt>
      <trkpt lat="44.28496" lon="6.18208">
        <ele>1541.6113281</ele>
        <time>2011-09-08T10:02:37Z</time>
      </trkpt>
      <trkpt lat="44.28464" lon="6.18208">
        <ele>1542.5727539</ele>
        <time>2011-09-08T10:02:57Z</time>
      </trkpt>
      <trkpt lat="44.2843" lon="6.18214">
        <ele>1543.0532227</ele>
        <time>2011-09-08T10:03:15Z</time>
      </trkpt>
      <trkpt lat="44.28396" lon="6.18217">
        <ele>1543.0532227</ele>
        <time>2011-09-08T10:03:33Z</time>
      </trkpt>
      <trkpt lat="44.28392" lon="6.18216">
        <ele>1543.0532227</ele>
        <time>2011-09-08T10:03:35Z</time>
      </trkpt>
      <trkpt lat="44.28338" lon="6.18211">
        <ele>1541.1306152</ele>
        <time>2011-09-08T10:03:53Z</time>
      </trkpt>
      <trkpt lat="44.28333" lon="6.18211">
        <ele>1541.1306152</ele>
        <time>2011-09-08T10:03:54Z</time>
      </trkpt>
      <trkpt lat="44.28312" lon="6.18208">
        <ele>1540.6499023</ele>
        <time>2011-09-08T10:03:59Z</time>
      </trkpt>
      <trkpt lat="44.28302" lon="6.18207">
        <ele>1540.1694336</ele>
        <time>2011-09-08T10:04:01Z</time>
      </trkpt>
      <trkpt lat="44.28257" lon="6.18207">
        <ele>1538.2468262</ele>
        <time>2011-09-08T10:04:14Z</time>
      </trkpt>
      <trkpt lat="44.28233" lon="6.18163">
        <ele>1539.2080078</ele>
        <time>2011-09-08T10:04:27Z</time>
      </trkpt>
      <trkpt lat="44.2823" lon="6.18159">
        <ele>1537.7661133</ele>
        <time>2011-09-08T10:04:29Z</time>
      </trkpt>
      <trkpt lat="44.28216" lon="6.18101">
        <ele>1538.7275391</ele>
        <time>2011-09-08T10:04:48Z</time>
      </trkpt>
      <trkpt lat="44.28217" lon="6.18041">
        <ele>1539.6887207</ele>
        <time>2011-09-08T10:05:07Z</time>
      </trkpt>
      <trkpt lat="44.28215" lon="6.17987">
        <ele>1541.1306152</ele>
        <time>2011-09-08T10:05:24Z</time>
      </trkpt>
      <trkpt lat="44.28214" lon="6.17961">
        <ele>1539.6887207</ele>
        <time>2011-09-08T10:05:32Z</time>
      </trkpt>
      <trkpt lat="44.28211" lon="6.17945">
        <ele>1540.6499023</ele>
        <time>2011-09-08T10:05:38Z</time>
      </trkpt>
      <trkpt lat="44.28208" lon="6.17936">
        <ele>1541.1306152</ele>
        <time>2011-09-08T10:05:42Z</time>
      </trkpt>
      <trkpt lat="44.28207" lon="6.17933">
        <ele>1540.1694336</ele>
        <time>2011-09-08T10:05:56Z</time>
      </trkpt>
      <trkpt lat="44.28203" lon="6.17925">
        <ele>1540.1694336</ele>
        <time>2011-09-08T10:06:10Z</time>
      </trkpt>
      <trkpt lat="44.28203" lon="6.17925">
        <ele>1540.6499023</ele>
        <time>2011-09-08T10:06:17Z</time>
      </trkpt>
      <trkpt lat="44.28203" lon="6.17925">
        <ele>1540.6499023</ele>
        <time>2011-09-08T10:06:37Z</time>
      </trkpt>
      <trkpt lat="44.28203" lon="6.17925">
        <ele>1540.6499023</ele>
        <time>2011-09-08T10:07:51Z</time>
      </trkpt>
      <trkpt lat="44.28203" lon="6.17925">
        <ele>1541.1306152</ele>
        <time>2011-09-08T10:10:19Z</time>
      </trkpt>
      <trkpt lat="44.28203" lon="6.17925">
        <ele>1540.1694336</ele>
        <time>2011-09-08T10:10:21Z</time>
      </trkpt>
      <trkpt lat="44.28203" lon="6.17925">
        <ele>1540.1694336</ele>
        <time>2011-09-08T10:11:22Z</time>
      </trkpt>
      <trkpt lat="44.28203" lon="6.17925">
        <ele>1539.6887207</ele>
        <time>2011-09-08T10:11:35Z</time>
      </trkpt>
      <trkpt lat="44.28184" lon="6.17916">
        <ele>1540.1694336</ele>
        <time>2011-09-08T10:11:43Z</time>
      </trkpt>
      <trkpt lat="44.2819" lon="6.17917">
        <ele>1537.7661133</ele>
        <time>2011-09-08T10:11:47Z</time>
      </trkpt>
      <trkpt lat="44.2819" lon="6.17917">
        <ele>1539.2080078</ele>
        <time>2011-09-08T10:11:49Z</time>
      </trkpt>
      <trkpt lat="44.28205" lon="6.17931">
        <ele>1540.6499023</ele>
        <time>2011-09-08T10:12:06Z</time>
      </trkpt>
      <trkpt lat="44.28212" lon="6.17947">
        <ele>1540.6499023</ele>
        <time>2011-09-08T10:12:21Z</time>
      </trkpt>
      <trkpt lat="44.28225" lon="6.17937">
        <ele>1540.6499023</ele>
        <time>2011-09-08T10:12:25Z</time>
      </trkpt>
      <trkpt lat="44.28228" lon="6.17935">
        <ele>1541.1306152</ele>
        <time>2011-09-08T10:12:29Z</time>
      </trkpt>
      <trkpt lat="44.28222" lon="6.17938">
        <ele>1541.1306152</ele>
        <time>2011-09-08T10:12:35Z</time>
      </trkpt>
      <trkpt lat="44.28217" lon="6.17941">
        <ele>1539.6887207</ele>
        <time>2011-09-08T10:12:39Z</time>
      </trkpt>
      <trkpt lat="44.28213" lon="6.17959">
        <ele>1539.2080078</ele>
        <time>2011-09-08T10:12:43Z</time>
      </trkpt>
      <trkpt lat="44.28217" lon="6.1802">
        <ele>1538.7275391</ele>
        <time>2011-09-08T10:13:04Z</time>
      </trkpt>
      <trkpt lat="44.28216" lon="6.18082">
        <ele>1537.7661133</ele>
        <time>2011-09-08T10:13:21Z</time>
      </trkpt>
      <trkpt lat="44.28235" lon="6.18167">
        <ele>1537.7661133</ele>
        <time>2011-09-08T10:13:39Z</time>
      </trkpt>
      <trkpt lat="44.28253" lon="6.18206">
        <ele>1536.8046875</ele>
        <time>2011-09-08T10:13:49Z</time>
      </trkpt>
      <trkpt lat="44.28247" lon="6.18219">
        <ele>1536.8046875</ele>
        <time>2011-09-08T10:13:53Z</time>
      </trkpt>
      <trkpt lat="44.28233" lon="6.18275">
        <ele>1536.8046875</ele>
        <time>2011-09-08T10:14:09Z</time>
      </trkpt>
      <trkpt lat="44.28217" lon="6.18292">
        <ele>1539.2080078</ele>
        <time>2011-09-08T10:14:21Z</time>
      </trkpt>
      <trkpt lat="44.28194" lon="6.18303">
        <ele>1540.1694336</ele>
        <time>2011-09-08T10:14:39Z</time>
      </trkpt>
      <trkpt lat="44.28172" lon="6.18309">
        <ele>1542.5727539</ele>
        <time>2011-09-08T10:14:57Z</time>
      </trkpt>
      <trkpt lat="44.28147" lon="6.1831">
        <ele>1544.4951172</ele>
        <time>2011-09-08T10:15:15Z</time>
      </trkpt>
      <trkpt lat="44.28146" lon="6.1831">
        <ele>1544.4951172</ele>
        <time>2011-09-08T10:15:17Z</time>
      </trkpt>
      <trkpt lat="44.28134" lon="6.18314">
        <ele>1545.456543</ele>
        <time>2011-09-08T10:15:27Z</time>
      </trkpt>
      <trkpt lat="44.28107" lon="6.18335">
        <ele>1547.3791504</ele>
        <time>2011-09-08T10:15:49Z</time>
      </trkpt>
      <trkpt lat="44.28088" lon="6.18368">
        <ele>1549.302002</ele>
        <time>2011-09-08T10:16:08Z</time>
      </trkpt>
      <trkpt lat="44.28074" lon="6.18417">
        <ele>1551.2246094</ele>
        <time>2011-09-08T10:16:29Z</time>
      </trkpt>
      <trkpt lat="44.28067" lon="6.18465">
        <ele>1554.1086426</ele>
        <time>2011-09-08T10:16:53Z</time>
      </trkpt>
      <trkpt lat="44.28055" lon="6.18497">
        <ele>1555.5505371</ele>
        <time>2011-09-08T10:17:09Z</time>
      </trkpt>
      <trkpt lat="44.28036" lon="6.18533">
        <ele>1555.5505371</ele>
        <time>2011-09-08T10:17:25Z</time>
      </trkpt>
      <trkpt lat="44.2801" lon="6.18581">
        <ele>1555.5505371</ele>
        <time>2011-09-08T10:17:43Z</time>
      </trkpt>
      <trkpt lat="44.27975" lon="6.18627">
        <ele>1554.5891113</ele>
        <time>2011-09-08T10:17:59Z</time>
      </trkpt>
      <trkpt lat="44.27976" lon="6.1866">
        <ele>1553.6279297</ele>
        <time>2011-09-08T10:18:08Z</time>
      </trkpt>
      <trkpt lat="44.27987" lon="6.18661">
        <ele>1554.1086426</ele>
        <time>2011-09-08T10:18:12Z</time>
      </trkpt>
      <trkpt lat="44.28026" lon="6.18654">
        <ele>1556.5117188</ele>
        <time>2011-09-08T10:18:31Z</time>
      </trkpt>
      <trkpt lat="44.28068" lon="6.1866">
        <ele>1556.9924316</ele>
        <time>2011-09-08T10:18:52Z</time>
      </trkpt>
      <trkpt lat="44.28099" lon="6.1867">
        <ele>1557.9538574</ele>
        <time>2011-09-08T10:19:11Z</time>
      </trkpt>
      <trkpt lat="44.28115" lon="6.18676">
        <ele>1559.8762207</ele>
        <time>2011-09-08T10:19:23Z</time>
      </trkpt>
      <trkpt lat="44.2814" lon="6.1868">
        <ele>1562.279541</ele>
        <time>2011-09-08T10:19:42Z</time>
      </trkpt>
      <trkpt lat="44.28162" lon="6.18678">
        <ele>1567.0864258</ele>
        <time>2011-09-08T10:19:59Z</time>
      </trkpt>
      <trkpt lat="44.28164" lon="6.18678">
        <ele>1567.0864258</ele>
        <time>2011-09-08T10:20:00Z</time>
      </trkpt>
      <trkpt lat="44.28168" lon="6.18683">
        <ele>1564.2023926</ele>
        <time>2011-09-08T10:20:05Z</time>
      </trkpt>
      <trkpt lat="44.28166" lon="6.18697">
        <ele>1567.5668945</ele>
        <time>2011-09-08T10:20:13Z</time>
      </trkpt>
      <trkpt lat="44.28166" lon="6.18698">
        <ele>1567.5668945</ele>
        <time>2011-09-08T10:20:14Z</time>
      </trkpt>
      <trkpt lat="44.28162" lon="6.18706">
        <ele>1567.5668945</ele>
        <time>2011-09-08T10:20:19Z</time>
      </trkpt>
      <trkpt lat="44.28151" lon="6.18745">
        <ele>1569.9702148</ele>
        <time>2011-09-08T10:20:42Z</time>
      </trkpt>
      <trkpt lat="44.28149" lon="6.18757">
        <ele>1569.4897461</ele>
        <time>2011-09-08T10:20:51Z</time>
      </trkpt>
      <trkpt lat="44.28147" lon="6.1876">
        <ele>1571.8928223</ele>
        <time>2011-09-08T10:20:56Z</time>
      </trkpt>
      <trkpt lat="44.28141" lon="6.18743">
        <ele>1573.8154297</ele>
        <time>2011-09-08T10:21:10Z</time>
      </trkpt>
      <trkpt lat="44.28137" lon="6.18738">
        <ele>1573.8154297</ele>
        <time>2011-09-08T10:21:14Z</time>
      </trkpt>
      <trkpt lat="44.28114" lon="6.18746">
        <ele>1576.21875</ele>
        <time>2011-09-08T10:21:36Z</time>
      </trkpt>
      <trkpt lat="44.28098" lon="6.18777">
        <ele>1578.6220703</ele>
        <time>2011-09-08T10:22:00Z</time>
      </trkpt>
      <trkpt lat="44.2808" lon="6.18805">
        <ele>1578.6220703</ele>
        <time>2011-09-08T10:22:22Z</time>
      </trkpt>
      <trkpt lat="44.28078" lon="6.18807">
        <ele>1579.1025391</ele>
        <time>2011-09-08T10:22:24Z</time>
      </trkpt>
      <trkpt lat="44.28073" lon="6.18822">
        <ele>1581.0256348</ele>
        <time>2011-09-08T10:22:33Z</time>
      </trkpt>
      <trkpt lat="44.2807" lon="6.18835">
        <ele>1582.4675293</ele>
        <time>2011-09-08T10:22:42Z</time>
      </trkpt>
      <trkpt lat="44.2807" lon="6.18874">
        <ele>1581.0256348</ele>
        <time>2011-09-08T10:23:01Z</time>
      </trkpt>
      <trkpt lat="44.28072" lon="6.18913">
        <ele>1581.0256348</ele>
        <time>2011-09-08T10:23:15Z</time>
      </trkpt>
      <trkpt lat="44.28071" lon="6.18958">
        <ele>1584.8708496</ele>
        <time>2011-09-08T10:23:37Z</time>
      </trkpt>
      <trkpt lat="44.28071" lon="6.18986">
        <ele>1587.2739258</ele>
        <time>2011-09-08T10:23:53Z</time>
      </trkpt>
      <trkpt lat="44.28068" lon="6.1903">
        <ele>1584.8708496</ele>
        <time>2011-09-08T10:24:12Z</time>
      </trkpt>
      <trkpt lat="44.28056" lon="6.19063">
        <ele>1586.3127441</ele>
        <time>2011-09-08T10:24:30Z</time>
      </trkpt>
      <trkpt lat="44.28039" lon="6.19119">
        <ele>1583.9094238</ele>
        <time>2011-09-08T10:24:44Z</time>
      </trkpt>
      <trkpt lat="44.28028" lon="6.19162">
        <ele>1583.4287109</ele>
        <time>2011-09-08T10:24:58Z</time>
      </trkpt>
      <trkpt lat="44.28028" lon="6.19163">
        <ele>1583.4287109</ele>
        <time>2011-09-08T10:24:59Z</time>
      </trkpt>
      <trkpt lat="44.28027" lon="6.19177">
        <ele>1584.8708496</ele>
        <time>2011-09-08T10:25:07Z</time>
      </trkpt>
      <trkpt lat="44.28027" lon="6.19189">
        <ele>1584.8708496</ele>
        <time>2011-09-08T10:25:13Z</time>
      </trkpt>
      <trkpt lat="44.28029" lon="6.19205">
        <ele>1585.3513184</ele>
        <time>2011-09-08T10:25:21Z</time>
      </trkpt>
      <trkpt lat="44.2803" lon="6.19212">
        <ele>1585.3513184</ele>
        <time>2011-09-08T10:25:25Z</time>
      </trkpt>
      <trkpt lat="44.28027" lon="6.19229">
        <ele>1588.2353516</ele>
        <time>2011-09-08T10:25:35Z</time>
      </trkpt>
      <trkpt lat="44.28008" lon="6.19254">
        <ele>1591.1191406</ele>
        <time>2011-09-08T10:25:53Z</time>
      </trkpt>
      <trkpt lat="44.27984" lon="6.19278">
        <ele>1592.5612793</ele>
        <time>2011-09-08T10:26:16Z</time>
      </trkpt>
      <trkpt lat="44.27968" lon="6.19284">
        <ele>1594.4836426</ele>
        <time>2011-09-08T10:26:27Z</time>
      </trkpt>
      <trkpt lat="44.2794" lon="6.193">
        <ele>1594.4836426</ele>
        <time>2011-09-08T10:26:41Z</time>
      </trkpt>
      <trkpt lat="44.27917" lon="6.19338">
        <ele>1594.0031738</ele>
        <time>2011-09-08T10:26:55Z</time>
      </trkpt>
      <trkpt lat="44.27904" lon="6.1937">
        <ele>1594.0031738</ele>
        <time>2011-09-08T10:27:10Z</time>
      </trkpt>
      <trkpt lat="44.27892" lon="6.19392">
        <ele>1594.0031738</ele>
        <time>2011-09-08T10:27:29Z</time>
      </trkpt>
      <trkpt lat="44.27885" lon="6.19429">
        <ele>1594.0031738</ele>
        <time>2011-09-08T10:27:45Z</time>
      </trkpt>
      <trkpt lat="44.27875" lon="6.19476">
        <ele>1594.4836426</ele>
        <time>2011-09-08T10:28:05Z</time>
      </trkpt>
      <trkpt lat="44.27861" lon="6.19512">
        <ele>1593.5224609</ele>
        <time>2011-09-08T10:28:20Z</time>
      </trkpt>
      <trkpt lat="44.27856" lon="6.19521">
        <ele>1593.5224609</ele>
        <time>2011-09-08T10:28:33Z</time>
      </trkpt>
      <trkpt lat="44.27847" lon="6.19564">
        <ele>1591.5998535</ele>
        <time>2011-09-08T10:28:46Z</time>
      </trkpt>
      <trkpt lat="44.27832" lon="6.196">
        <ele>1589.1965332</ele>
        <time>2011-09-08T10:29:00Z</time>
      </trkpt>
      <trkpt lat="44.27829" lon="6.19603">
        <ele>1588.7160645</ele>
        <time>2011-09-08T10:29:02Z</time>
      </trkpt>
      <trkpt lat="44.27829" lon="6.19617">
        <ele>1588.2353516</ele>
        <time>2011-09-08T10:29:06Z</time>
      </trkpt>
      <trkpt lat="44.27829" lon="6.19629">
        <ele>1588.7160645</ele>
        <time>2011-09-08T10:29:18Z</time>
      </trkpt>
      <trkpt lat="44.27829" lon="6.1963">
        <ele>1589.1965332</ele>
        <time>2011-09-08T10:29:20Z</time>
      </trkpt>
      <trkpt lat="44.27825" lon="6.19643">
        <ele>1588.7160645</ele>
        <time>2011-09-08T10:29:26Z</time>
      </trkpt>
      <trkpt lat="44.2783" lon="6.1966">
        <ele>1587.2739258</ele>
        <time>2011-09-08T10:29:32Z</time>
      </trkpt>
      <trkpt lat="44.27832" lon="6.19666">
        <ele>1587.2739258</ele>
        <time>2011-09-08T10:29:34Z</time>
      </trkpt>
      <trkpt lat="44.27836" lon="6.19681">
        <ele>1587.2739258</ele>
        <time>2011-09-08T10:29:40Z</time>
      </trkpt>
      <trkpt lat="44.27849" lon="6.19684">
        <ele>1586.7932129</ele>
        <time>2011-09-08T10:29:44Z</time>
      </trkpt>
      <trkpt lat="44.27864" lon="6.19713">
        <ele>1586.3127441</ele>
        <time>2011-09-08T10:29:55Z</time>
      </trkpt>
      <trkpt lat="44.27875" lon="6.19735">
        <ele>1589.6772461</ele>
        <time>2011-09-08T10:30:08Z</time>
      </trkpt>
      <trkpt lat="44.27881" lon="6.19766">
        <ele>1590.157959</ele>
        <time>2011-09-08T10:30:20Z</time>
      </trkpt>
      <trkpt lat="44.27881" lon="6.19777">
        <ele>1591.1191406</ele>
        <time>2011-09-08T10:30:25Z</time>
      </trkpt>
      <trkpt lat="44.27859" lon="6.19826">
        <ele>1591.5998535</ele>
        <time>2011-09-08T10:30:48Z</time>
      </trkpt>
      <trkpt lat="44.27853" lon="6.19835">
        <ele>1590.157959</ele>
        <time>2011-09-08T10:30:51Z</time>
      </trkpt>
      <trkpt lat="44.27836" lon="6.19864">
        <ele>1589.1965332</ele>
        <time>2011-09-08T10:31:03Z</time>
      </trkpt>
      <trkpt lat="44.27835" lon="6.19866">
        <ele>1589.1965332</ele>
        <time>2011-09-08T10:31:04Z</time>
      </trkpt>
      <trkpt lat="44.27822" lon="6.19888">
        <ele>1588.2353516</ele>
        <time>2011-09-08T10:31:12Z</time>
      </trkpt>
      <trkpt lat="44.27814" lon="6.19903">
        <ele>1588.2353516</ele>
        <time>2011-09-08T10:31:18Z</time>
      </trkpt>
      <trkpt lat="44.27808" lon="6.19912">
        <ele>1589.6772461</ele>
        <time>2011-09-08T10:31:23Z</time>
      </trkpt>
      <trkpt lat="44.27799" lon="6.19929">
        <ele>1586.3127441</ele>
        <time>2011-09-08T10:31:32Z</time>
      </trkpt>
      <trkpt lat="44.27797" lon="6.19932">
        <ele>1585.3513184</ele>
        <time>2011-09-08T10:31:34Z</time>
      </trkpt>
      <trkpt lat="44.27793" lon="6.19935">
        <ele>1586.7932129</ele>
        <time>2011-09-08T10:31:37Z</time>
      </trkpt>
      <trkpt lat="44.27792" lon="6.19936">
        <ele>1585.8320313</ele>
        <time>2011-09-08T10:31:38Z</time>
      </trkpt>
      <trkpt lat="44.27791" lon="6.19936">
        <ele>1584.8708496</ele>
        <time>2011-09-08T10:31:41Z</time>
      </trkpt>
      <trkpt lat="44.27791" lon="6.19936">
        <ele>1584.3901367</ele>
        <time>2011-09-08T10:32:01Z</time>
      </trkpt>
      <trkpt lat="44.27791" lon="6.19936">
        <ele>1584.3901367</ele>
        <time>2011-09-08T10:32:28Z</time>
      </trkpt>
      <trkpt lat="44.2778" lon="6.19942">
        <ele>1583.4287109</ele>
        <time>2011-09-08T10:32:50Z</time>
      </trkpt>
      <trkpt lat="44.27763" lon="6.19946">
        <ele>1582.4675293</ele>
        <time>2011-09-08T10:32:57Z</time>
      </trkpt>
      <trkpt lat="44.27758" lon="6.19946">
        <ele>1582.4675293</ele>
        <time>2011-09-08T10:33:00Z</time>
      </trkpt>
      <trkpt lat="44.27749" lon="6.19942">
        <ele>1581.9868164</ele>
        <time>2011-09-08T10:33:05Z</time>
      </trkpt>
      <trkpt lat="44.27741" lon="6.19949">
        <ele>1581.0256348</ele>
        <time>2011-09-08T10:33:12Z</time>
      </trkpt>
      <trkpt lat="44.27743" lon="6.1996">
        <ele>1581.9868164</ele>
        <time>2011-09-08T10:33:27Z</time>
      </trkpt>
      <trkpt lat="44.27745" lon="6.19981">
        <ele>1582.4675293</ele>
        <time>2011-09-08T10:33:50Z</time>
      </trkpt>
      <trkpt lat="44.27748" lon="6.20037">
        <ele>1582.4675293</ele>
        <time>2011-09-08T10:34:11Z</time>
      </trkpt>
      <trkpt lat="44.27763" lon="6.20058">
        <ele>1583.4287109</ele>
        <time>2011-09-08T10:34:33Z</time>
      </trkpt>
      <trkpt lat="44.27767" lon="6.20063">
        <ele>1585.8320313</ele>
        <time>2011-09-08T10:34:54Z</time>
      </trkpt>
      <trkpt lat="44.27769" lon="6.20099">
        <ele>1586.3127441</ele>
        <time>2011-09-08T10:35:13Z</time>
      </trkpt>
      <trkpt lat="44.27761" lon="6.2013">
        <ele>1586.3127441</ele>
        <time>2011-09-08T10:35:37Z</time>
      </trkpt>
      <trkpt lat="44.2775" lon="6.20152">
        <ele>1586.3127441</ele>
        <time>2011-09-08T10:35:54Z</time>
      </trkpt>
      <trkpt lat="44.2775" lon="6.20152">
        <ele>1586.3127441</ele>
        <time>2011-09-08T10:36:17Z</time>
      </trkpt>
      <trkpt lat="44.2775" lon="6.20152">
        <ele>1586.3127441</ele>
        <time>2011-09-08T10:36:20Z</time>
      </trkpt>
      <trkpt lat="44.27735" lon="6.20188">
        <ele>1587.2739258</ele>
        <time>2011-09-08T10:36:37Z</time>
      </trkpt>
      <trkpt lat="44.27733" lon="6.20222">
        <ele>1588.7160645</ele>
        <time>2011-09-08T10:36:54Z</time>
      </trkpt>
      <trkpt lat="44.27725" lon="6.20257">
        <ele>1589.6772461</ele>
        <time>2011-09-08T10:37:13Z</time>
      </trkpt>
      <trkpt lat="44.2772" lon="6.20282">
        <ele>1590.157959</ele>
        <time>2011-09-08T10:37:25Z</time>
      </trkpt>
      <trkpt lat="44.27706" lon="6.20314">
        <ele>1593.041748</ele>
        <time>2011-09-08T10:37:46Z</time>
      </trkpt>
      <trkpt lat="44.27688" lon="6.20344">
        <ele>1594.0031738</ele>
        <time>2011-09-08T10:38:06Z</time>
      </trkpt>
      <trkpt lat="44.27664" lon="6.2038">
        <ele>1595.4450684</ele>
        <time>2011-09-08T10:38:30Z</time>
      </trkpt>
      <trkpt lat="44.27664" lon="6.2038">
        <ele>1594.9643555</ele>
        <time>2011-09-08T10:38:44Z</time>
      </trkpt>
      <trkpt lat="44.27661" lon="6.20383">
        <ele>1594.9643555</ele>
        <time>2011-09-08T10:38:46Z</time>
      </trkpt>
      <trkpt lat="44.27661" lon="6.20383">
        <ele>1594.9643555</ele>
        <time>2011-09-08T10:38:50Z</time>
      </trkpt>
      <trkpt lat="44.27654" lon="6.20394">
        <ele>1595.9257813</ele>
        <time>2011-09-08T10:39:14Z</time>
      </trkpt>
      <trkpt lat="44.2763" lon="6.20421">
        <ele>1597.3679199</ele>
        <time>2011-09-08T10:39:30Z</time>
      </trkpt>
      <trkpt lat="44.2763" lon="6.20421">
        <ele>1598.3291016</ele>
        <time>2011-09-08T10:39:45Z</time>
      </trkpt>
      <trkpt lat="44.27626" lon="6.20459">
        <ele>1598.3291016</ele>
        <time>2011-09-08T10:39:48Z</time>
      </trkpt>
      <trkpt lat="44.27623" lon="6.20469">
        <ele>1598.8098145</ele>
        <time>2011-09-08T10:39:55Z</time>
      </trkpt>
      <trkpt lat="44.27622" lon="6.20474">
        <ele>1598.8098145</ele>
        <time>2011-09-08T10:39:59Z</time>
      </trkpt>
      <trkpt lat="44.27609" lon="6.20482">
        <ele>1600.7324219</ele>
        <time>2011-09-08T10:40:14Z</time>
      </trkpt>
      <trkpt lat="44.27608" lon="6.20487">
        <ele>1600.7324219</ele>
        <time>2011-09-08T10:40:18Z</time>
      </trkpt>
      <trkpt lat="44.27602" lon="6.20496">
        <ele>1601.2131348</ele>
        <time>2011-09-08T10:40:27Z</time>
      </trkpt>
      <trkpt lat="44.27596" lon="6.20509">
        <ele>1603.6164551</ele>
        <time>2011-09-08T10:40:39Z</time>
      </trkpt>
      <trkpt lat="44.27583" lon="6.20527">
        <ele>1606.0195313</ele>
        <time>2011-09-08T10:41:00Z</time>
      </trkpt>
      <trkpt lat="44.2757" lon="6.20554">
        <ele>1607.9423828</ele>
        <time>2011-09-08T10:41:23Z</time>
      </trkpt>
      <trkpt lat="44.27559" lon="6.2058">
        <ele>1609.8647461</ele>
        <time>2011-09-08T10:41:45Z</time>
      </trkpt>
      <trkpt lat="44.27547" lon="6.20608">
        <ele>1611.7875977</ele>
        <time>2011-09-08T10:42:08Z</time>
      </trkpt>
      <trkpt lat="44.27524" lon="6.20633">
        <ele>1612.2683105</ele>
        <time>2011-09-08T10:42:36Z</time>
      </trkpt>
      <trkpt lat="44.27508" lon="6.20648">
        <ele>1613.2297363</ele>
        <time>2011-09-08T10:42:57Z</time>
      </trkpt>
      <trkpt lat="44.27492" lon="6.20665">
        <ele>1615.6330566</ele>
        <time>2011-09-08T10:43:21Z</time>
      </trkpt>
      <trkpt lat="44.27473" lon="6.20677">
        <ele>1617.5554199</ele>
        <time>2011-09-08T10:43:42Z</time>
      </trkpt>
      <trkpt lat="44.27444" lon="6.20683">
        <ele>1618.0361328</ele>
        <time>2011-09-08T10:44:10Z</time>
      </trkpt>
      <trkpt lat="44.27419" lon="6.20679">
        <ele>1620.920166</ele>
        <time>2011-09-08T10:44:34Z</time>
      </trkpt>
      <trkpt lat="44.27409" lon="6.20678">
        <ele>1621.8813477</ele>
        <time>2011-09-08T10:44:50Z</time>
      </trkpt>
      <trkpt lat="44.27398" lon="6.20688">
        <ele>1622.3620605</ele>
        <time>2011-09-08T10:45:08Z</time>
      </trkpt>
      <trkpt lat="44.27403" lon="6.20704">
        <ele>1623.8039551</ele>
        <time>2011-09-08T10:45:21Z</time>
      </trkpt>
      <trkpt lat="44.27402" lon="6.20725">
        <ele>1624.7653809</ele>
        <time>2011-09-08T10:45:37Z</time>
      </trkpt>
      <trkpt lat="44.27402" lon="6.2075">
        <ele>1628.6108398</ele>
        <time>2011-09-08T10:46:00Z</time>
      </trkpt>
      <trkpt lat="44.27399" lon="6.20776">
        <ele>1631.4946289</ele>
        <time>2011-09-08T10:46:27Z</time>
      </trkpt>
      <trkpt lat="44.27391" lon="6.20788">
        <ele>1634.859375</ele>
        <time>2011-09-08T10:46:48Z</time>
      </trkpt>
      <trkpt lat="44.27376" lon="6.20792">
        <ele>1637.2624512</ele>
        <time>2011-09-08T10:47:10Z</time>
      </trkpt>
      <trkpt lat="44.27363" lon="6.20792">
        <ele>1640.1464844</ele>
        <time>2011-09-08T10:47:32Z</time>
      </trkpt>
      <trkpt lat="44.27354" lon="6.20796">
        <ele>1643.0302734</ele>
        <time>2011-09-08T10:47:48Z</time>
      </trkpt>
      <trkpt lat="44.27344" lon="6.20799">
        <ele>1645.9145508</ele>
        <time>2011-09-08T10:48:09Z</time>
      </trkpt>
      <trkpt lat="44.27332" lon="6.20813">
        <ele>1648.317627</ele>
        <time>2011-09-08T10:48:33Z</time>
      </trkpt>
      <trkpt lat="44.27324" lon="6.20821">
        <ele>1651.682373</ele>
        <time>2011-09-08T10:48:49Z</time>
      </trkpt>
      <trkpt lat="44.27305" lon="6.20834">
        <ele>1654.5661621</ele>
        <time>2011-09-08T10:49:19Z</time>
      </trkpt>
      <trkpt lat="44.27295" lon="6.2085">
        <ele>1657.9309082</ele>
        <time>2011-09-08T10:49:42Z</time>
      </trkpt>
      <trkpt lat="44.27286" lon="6.20858">
        <ele>1659.8532715</ele>
        <time>2011-09-08T10:50:04Z</time>
      </trkpt>
      <trkpt lat="44.2728" lon="6.20872">
        <ele>1661.2956543</ele>
        <time>2011-09-08T10:50:38Z</time>
      </trkpt>
      <trkpt lat="44.27279" lon="6.20889">
        <ele>1664.6601563</ele>
        <time>2011-09-08T10:50:56Z</time>
      </trkpt>
      <trkpt lat="44.27278" lon="6.20908">
        <ele>1667.5439453</ele>
        <time>2011-09-08T10:51:19Z</time>
      </trkpt>
      <trkpt lat="44.2728" lon="6.20933">
        <ele>1670.9086914</ele>
        <time>2011-09-08T10:51:42Z</time>
      </trkpt>
      <trkpt lat="44.27278" lon="6.20946">
        <ele>1674.2731934</ele>
        <time>2011-09-08T10:52:00Z</time>
      </trkpt>
      <trkpt lat="44.27277" lon="6.20956">
        <ele>1677.1574707</ele>
        <time>2011-09-08T10:52:10Z</time>
      </trkpt>
      <trkpt lat="44.27268" lon="6.20982">
        <ele>1679.5605469</ele>
        <time>2011-09-08T10:52:38Z</time>
      </trkpt>
      <trkpt lat="44.27269" lon="6.20996">
        <ele>1679.5605469</ele>
        <time>2011-09-08T10:52:48Z</time>
      </trkpt>
      <trkpt lat="44.27262" lon="6.21014">
        <ele>1682.9250488</ele>
        <time>2011-09-08T10:53:06Z</time>
      </trkpt>
      <trkpt lat="44.27261" lon="6.21015">
        <ele>1681.9638672</ele>
        <time>2011-09-08T10:53:25Z</time>
      </trkpt>
      <trkpt lat="44.27262" lon="6.21015">
        <ele>1683.4057617</ele>
        <time>2011-09-08T10:53:27Z</time>
      </trkpt>
      <trkpt lat="44.27262" lon="6.21015">
        <ele>1682.4445801</ele>
        <time>2011-09-08T10:53:37Z</time>
      </trkpt>
      <trkpt lat="44.27261" lon="6.21016">
        <ele>1683.4057617</ele>
        <time>2011-09-08T10:53:46Z</time>
      </trkpt>
      <trkpt lat="44.27267" lon="6.21016">
        <ele>1681.9638672</ele>
        <time>2011-09-08T10:54:16Z</time>
      </trkpt>
      <trkpt lat="44.27268" lon="6.21012">
        <ele>1683.4057617</ele>
        <time>2011-09-08T10:54:35Z</time>
      </trkpt>
      <trkpt lat="44.27268" lon="6.2101">
        <ele>1681.0026855</ele>
        <time>2011-09-08T10:54:42Z</time>
      </trkpt>
      <trkpt lat="44.27268" lon="6.21011">
        <ele>1682.4445801</ele>
        <time>2011-09-08T10:55:02Z</time>
      </trkpt>
      <trkpt lat="44.27268" lon="6.21011">
        <ele>1682.4445801</ele>
        <time>2011-09-08T10:55:16Z</time>
      </trkpt>
      <trkpt lat="44.27268" lon="6.2101">
        <ele>1682.4445801</ele>
        <time>2011-09-08T10:58:19Z</time>
      </trkpt>
      <trkpt lat="44.27268" lon="6.21008">
        <ele>1685.809082</ele>
        <time>2011-09-08T11:13:00Z</time>
      </trkpt>
      <trkpt lat="44.27268" lon="6.21008">
        <ele>1685.809082</ele>
        <time>2011-09-08T11:13:18Z</time>
      </trkpt>
      <trkpt lat="44.27268" lon="6.21009">
        <ele>1684.3671875</ele>
        <time>2011-09-08T11:13:44Z</time>
      </trkpt>
      <trkpt lat="44.27268" lon="6.21009">
        <ele>1685.809082</ele>
        <time>2011-09-08T11:14:43Z</time>
      </trkpt>
      <trkpt lat="44.27268" lon="6.21008">
        <ele>1685.3283691</ele>
        <time>2011-09-08T11:15:51Z</time>
      </trkpt>
      <trkpt lat="44.27268" lon="6.21008">
        <ele>1685.3283691</ele>
        <time>2011-09-08T11:15:54Z</time>
      </trkpt>
      <trkpt lat="44.27267" lon="6.20963">
        <ele>1682.9250488</ele>
        <time>2011-09-08T11:16:08Z</time>
      </trkpt>
      <trkpt lat="44.27264" lon="6.2094">
        <ele>1681.4831543</ele>
        <time>2011-09-08T11:16:15Z</time>
      </trkpt>
      <trkpt lat="44.27265" lon="6.20926">
        <ele>1679.5605469</ele>
        <time>2011-09-08T11:16:21Z</time>
      </trkpt>
      <trkpt lat="44.2727" lon="6.20908">
        <ele>1676.1960449</ele>
        <time>2011-09-08T11:16:29Z</time>
      </trkpt>
      <trkpt lat="44.27273" lon="6.20894">
        <ele>1672.3505859</ele>
        <time>2011-09-08T11:16:36Z</time>
      </trkpt>
      <trkpt lat="44.27273" lon="6.20891">
        <ele>1672.3505859</ele>
        <time>2011-09-08T11:16:37Z</time>
      </trkpt>
      <trkpt lat="44.27274" lon="6.20877">
        <ele>1669.4667969</ele>
        <time>2011-09-08T11:16:44Z</time>
      </trkpt>
      <trkpt lat="44.27274" lon="6.20849">
        <ele>1666.5827637</ele>
        <time>2011-09-08T11:16:56Z</time>
      </trkpt>
      <trkpt lat="44.27274" lon="6.20844">
        <ele>1665.1408691</ele>
        <time>2011-09-08T11:16:58Z</time>
      </trkpt>
      <trkpt lat="44.27242" lon="6.20851">
        <ele>1661.7763672</ele>
        <time>2011-09-08T11:17:04Z</time>
      </trkpt>
      <trkpt lat="44.27239" lon="6.20846">
        <ele>1661.7763672</ele>
        <time>2011-09-08T11:17:05Z</time>
      </trkpt>
      <trkpt lat="44.27222" lon="6.20821">
        <ele>1660.8149414</ele>
        <time>2011-09-08T11:17:16Z</time>
      </trkpt>
      <trkpt lat="44.27196" lon="6.20781">
        <ele>1658.8920898</ele>
        <time>2011-09-08T11:17:30Z</time>
      </trkpt>
      <trkpt lat="44.27231" lon="6.20701">
        <ele>1655.5275879</ele>
        <time>2011-09-08T11:17:40Z</time>
      </trkpt>
      <trkpt lat="44.27229" lon="6.20687">
        <ele>1654.5661621</ele>
        <time>2011-09-08T11:17:53Z</time>
      </trkpt>
      <trkpt lat="44.27238" lon="6.20686">
        <ele>1651.682373</ele>
        <time>2011-09-08T11:18:05Z</time>
      </trkpt>
      <trkpt lat="44.2724" lon="6.20685">
        <ele>1650.7209473</ele>
        <time>2011-09-08T11:18:17Z</time>
      </trkpt>
      <trkpt lat="44.27246" lon="6.2068">
        <ele>1650.7209473</ele>
        <time>2011-09-08T11:18:21Z</time>
      </trkpt>
      <trkpt lat="44.27252" lon="6.20677">
        <ele>1649.2790527</ele>
        <time>2011-09-08T11:18:23Z</time>
      </trkpt>
      <trkpt lat="44.27259" lon="6.20674">
        <ele>1647.3564453</ele>
        <time>2011-09-08T11:18:26Z</time>
      </trkpt>
      <trkpt lat="44.27266" lon="6.20679">
        <ele>1645.9145508</ele>
        <time>2011-09-08T11:18:29Z</time>
      </trkpt>
      <trkpt lat="44.27272" lon="6.20666">
        <ele>1644.4724121</ele>
        <time>2011-09-08T11:18:35Z</time>
      </trkpt>
      <trkpt lat="44.27279" lon="6.20657">
        <ele>1641.5883789</ele>
        <time>2011-09-08T11:18:46Z</time>
      </trkpt>
      <trkpt lat="44.27286" lon="6.20651">
        <ele>1640.6269531</ele>
        <time>2011-09-08T11:18:59Z</time>
      </trkpt>
      <trkpt lat="44.273" lon="6.20646">
        <ele>1643.5109863</ele>
        <time>2011-09-08T11:19:18Z</time>
      </trkpt>
      <trkpt lat="44.273" lon="6.20637">
        <ele>1643.9916992</ele>
        <time>2011-09-08T11:19:25Z</time>
      </trkpt>
      <trkpt lat="44.273" lon="6.20628">
        <ele>1644.4724121</ele>
        <time>2011-09-08T11:19:31Z</time>
      </trkpt>
      <trkpt lat="44.27312" lon="6.20602">
        <ele>1643.9916992</ele>
        <time>2011-09-08T11:19:50Z</time>
      </trkpt>
      <trkpt lat="44.27331" lon="6.20588">
        <ele>1644.4724121</ele>
        <time>2011-09-08T11:20:10Z</time>
      </trkpt>
      <trkpt lat="44.27345" lon="6.20591">
        <ele>1643.0302734</ele>
        <time>2011-09-08T11:20:17Z</time>
      </trkpt>
      <trkpt lat="44.27355" lon="6.20598">
        <ele>1641.107666</ele>
        <time>2011-09-08T11:20:21Z</time>
      </trkpt>
      <trkpt lat="44.27363" lon="6.2061">
        <ele>1639.1850586</ele>
        <time>2011-09-08T11:20:24Z</time>
      </trkpt>
      <trkpt lat="44.27389" lon="6.2063">
        <ele>1636.3012695</ele>
        <time>2011-09-08T11:20:34Z</time>
      </trkpt>
      <trkpt lat="44.27418" lon="6.20631">
        <ele>1631.9753418</ele>
        <time>2011-09-08T11:20:43Z</time>
      </trkpt>
      <trkpt lat="44.27423" lon="6.20631">
        <ele>1631.9753418</ele>
        <time>2011-09-08T11:20:44Z</time>
      </trkpt>
      <trkpt lat="44.27435" lon="6.20632">
        <ele>1629.5720215</ele>
        <time>2011-09-08T11:20:47Z</time>
      </trkpt>
      <trkpt lat="44.27446" lon="6.20651">
        <ele>1626.6879883</ele>
        <time>2011-09-08T11:20:53Z</time>
      </trkpt>
      <trkpt lat="44.27447" lon="6.20657">
        <ele>1626.6879883</ele>
        <time>2011-09-08T11:20:54Z</time>
      </trkpt>
      <trkpt lat="44.27449" lon="6.20667">
        <ele>1625.2458496</ele>
        <time>2011-09-08T11:20:56Z</time>
      </trkpt>
      <trkpt lat="44.27451" lon="6.20671">
        <ele>1624.7653809</ele>
        <time>2011-09-08T11:20:57Z</time>
      </trkpt>
      <trkpt lat="44.27466" lon="6.20674">
        <ele>1623.3234863</ele>
        <time>2011-09-08T11:21:03Z</time>
      </trkpt>
      <trkpt lat="44.27492" lon="6.20663">
        <ele>1620.920166</ele>
        <time>2011-09-08T11:21:17Z</time>
      </trkpt>
      <trkpt lat="44.27496" lon="6.20663">
        <ele>1620.920166</ele>
        <time>2011-09-08T11:21:19Z</time>
      </trkpt>
      <trkpt lat="44.27506" lon="6.20645">
        <ele>1616.5942383</ele>
        <time>2011-09-08T11:21:29Z</time>
      </trkpt>
      <trkpt lat="44.27506" lon="6.20643">
        <ele>1616.5942383</ele>
        <time>2011-09-08T11:21:32Z</time>
      </trkpt>
      <trkpt lat="44.27511" lon="6.20636">
        <ele>1616.1135254</ele>
        <time>2011-09-08T11:21:37Z</time>
      </trkpt>
      <trkpt lat="44.27529" lon="6.2063">
        <ele>1616.1135254</ele>
        <time>2011-09-08T11:21:56Z</time>
      </trkpt>
      <trkpt lat="44.27529" lon="6.2063">
        <ele>1616.1135254</ele>
        <time>2011-09-08T11:21:57Z</time>
      </trkpt>
      <trkpt lat="44.27556" lon="6.20587">
        <ele>1614.6716309</ele>
        <time>2011-09-08T11:22:11Z</time>
      </trkpt>
      <trkpt lat="44.27571" lon="6.2055">
        <ele>1611.7875977</ele>
        <time>2011-09-08T11:22:20Z</time>
      </trkpt>
      <trkpt lat="44.27573" lon="6.20546">
        <ele>1611.3068848</ele>
        <time>2011-09-08T11:22:21Z</time>
      </trkpt>
      <trkpt lat="44.27592" lon="6.20508">
        <ele>1608.4228516</ele>
        <time>2011-09-08T11:22:32Z</time>
      </trkpt>
      <trkpt lat="44.27593" lon="6.20492">
        <ele>1606.0195313</ele>
        <time>2011-09-08T11:22:37Z</time>
      </trkpt>
      <trkpt lat="44.27601" lon="6.20482">
        <ele>1605.5390625</ele>
        <time>2011-09-08T11:22:41Z</time>
      </trkpt>
      <trkpt lat="44.27606" lon="6.20478">
        <ele>1605.5390625</ele>
        <time>2011-09-08T11:22:43Z</time>
      </trkpt>
      <trkpt lat="44.27618" lon="6.20446">
        <ele>1603.6164551</ele>
        <time>2011-09-08T11:22:56Z</time>
      </trkpt>
      <trkpt lat="44.27625" lon="6.20434">
        <ele>1603.6164551</ele>
        <time>2011-09-08T11:23:08Z</time>
      </trkpt>
      <trkpt lat="44.27625" lon="6.20431">
        <ele>1603.6164551</ele>
        <time>2011-09-08T11:23:31Z</time>
      </trkpt>
      <trkpt lat="44.27624" lon="6.20428">
        <ele>1602.6550293</ele>
        <time>2011-09-08T11:23:47Z</time>
      </trkpt>
      <trkpt lat="44.27637" lon="6.20414">
        <ele>1603.1357422</ele>
        <time>2011-09-08T11:24:02Z</time>
      </trkpt>
      <trkpt lat="44.27661" lon="6.20383">
        <ele>1599.7712402</ele>
        <time>2011-09-08T11:24:12Z</time>
      </trkpt>
      <trkpt lat="44.27677" lon="6.20361">
        <ele>1597.8486328</ele>
        <time>2011-09-08T11:24:18Z</time>
      </trkpt>
      <trkpt lat="44.2771" lon="6.20307">
        <ele>1595.9257813</ele>
        <time>2011-09-08T11:24:34Z</time>
      </trkpt>
      <trkpt lat="44.27723" lon="6.20267">
        <ele>1593.5224609</ele>
        <time>2011-09-08T11:24:46Z</time>
      </trkpt>
      <trkpt lat="44.27735" lon="6.20198">
        <ele>1590.157959</ele>
        <time>2011-09-08T11:25:01Z</time>
      </trkpt>
      <trkpt lat="44.27735" lon="6.20194">
        <ele>1590.157959</ele>
        <time>2011-09-08T11:25:02Z</time>
      </trkpt>
      <trkpt lat="44.27735" lon="6.2019">
        <ele>1589.6772461</ele>
        <time>2011-09-08T11:25:03Z</time>
      </trkpt>
      <trkpt lat="44.27753" lon="6.2015">
        <ele>1588.7160645</ele>
        <time>2011-09-08T11:25:16Z</time>
      </trkpt>
      <trkpt lat="44.27757" lon="6.20147">
        <ele>1587.7546387</ele>
        <time>2011-09-08T11:25:18Z</time>
      </trkpt>
      <trkpt lat="44.2777" lon="6.20136">
        <ele>1584.8708496</ele>
        <time>2011-09-08T11:25:24Z</time>
      </trkpt>
      <trkpt lat="44.27774" lon="6.20133">
        <ele>1584.8708496</ele>
        <time>2011-09-08T11:25:25Z</time>
      </trkpt>
      <trkpt lat="44.27796" lon="6.20121">
        <ele>1581.0256348</ele>
        <time>2011-09-08T11:25:31Z</time>
      </trkpt>
      <trkpt lat="44.27801" lon="6.20118">
        <ele>1581.0256348</ele>
        <time>2011-09-08T11:25:32Z</time>
      </trkpt>
      <trkpt lat="44.2781" lon="6.20116">
        <ele>1579.583252</ele>
        <time>2011-09-08T11:25:34Z</time>
      </trkpt>
      <trkpt lat="44.27825" lon="6.20114">
        <ele>1577.1801758</ele>
        <time>2011-09-08T11:25:39Z</time>
      </trkpt>
      <trkpt lat="44.27829" lon="6.20112">
        <ele>1576.6994629</ele>
        <time>2011-09-08T11:25:41Z</time>
      </trkpt>
      <trkpt lat="44.27831" lon="6.20112">
        <ele>1575.2573242</ele>
        <time>2011-09-08T11:25:54Z</time>
      </trkpt>
      <trkpt lat="44.27831" lon="6.20112">
        <ele>1574.2961426</ele>
        <time>2011-09-08T11:26:08Z</time>
      </trkpt>
      <trkpt lat="44.27847" lon="6.20098">
        <ele>1571.4121094</ele>
        <time>2011-09-08T11:26:16Z</time>
      </trkpt>
      <trkpt lat="44.27852" lon="6.20094">
        <ele>1569.4897461</ele>
        <time>2011-09-08T11:26:18Z</time>
      </trkpt>
      <trkpt lat="44.27865" lon="6.20086">
        <ele>1566.6057129</ele>
        <time>2011-09-08T11:26:23Z</time>
      </trkpt>
      <trkpt lat="44.2787" lon="6.20084">
        <ele>1565.6445313</ele>
        <time>2011-09-08T11:26:25Z</time>
      </trkpt>
      <trkpt lat="44.27886" lon="6.20078">
        <ele>1562.7602539</ele>
        <time>2011-09-08T11:26:32Z</time>
      </trkpt>
      <trkpt lat="44.279" lon="6.2007">
        <ele>1559.8762207</ele>
        <time>2011-09-08T11:26:38Z</time>
      </trkpt>
      <trkpt lat="44.27902" lon="6.20068">
        <ele>1559.8762207</ele>
        <time>2011-09-08T11:26:39Z</time>
      </trkpt>
      <trkpt lat="44.27907" lon="6.2006">
        <ele>1557.4731445</ele>
        <time>2011-09-08T11:26:42Z</time>
      </trkpt>
      <trkpt lat="44.27912" lon="6.20052">
        <ele>1556.0310059</ele>
        <time>2011-09-08T11:26:45Z</time>
      </trkpt>
      <trkpt lat="44.27925" lon="6.20023">
        <ele>1552.6665039</ele>
        <time>2011-09-08T11:26:54Z</time>
      </trkpt>
      <trkpt lat="44.27928" lon="6.20017">
        <ele>1552.6665039</ele>
        <time>2011-09-08T11:26:56Z</time>
      </trkpt>
      <trkpt lat="44.27932" lon="6.20006">
        <ele>1551.2246094</ele>
        <time>2011-09-08T11:27:00Z</time>
      </trkpt>
      <trkpt lat="44.27947" lon="6.19981">
        <ele>1547.8598633</ele>
        <time>2011-09-08T11:27:10Z</time>
      </trkpt>
      <trkpt lat="44.27932" lon="6.1997">
        <ele>1545.9372559</ele>
        <time>2011-09-08T11:27:21Z</time>
      </trkpt>
      <trkpt lat="44.27932" lon="6.1997">
        <ele>1544.9758301</ele>
        <time>2011-09-08T11:27:30Z</time>
      </trkpt>
      <trkpt lat="44.27932" lon="6.1997">
        <ele>1545.456543</ele>
        <time>2011-09-08T11:27:32Z</time>
      </trkpt>
      <trkpt lat="44.27932" lon="6.1997">
        <ele>1545.456543</ele>
        <time>2011-09-08T11:27:34Z</time>
      </trkpt>
      <trkpt lat="44.27932" lon="6.1997">
        <ele>1545.9372559</ele>
        <time>2011-09-08T11:27:45Z</time>
      </trkpt>
      <trkpt lat="44.27932" lon="6.1997">
        <ele>1545.9372559</ele>
        <time>2011-09-08T11:27:46Z</time>
      </trkpt>
      <trkpt lat="44.27944" lon="6.19964">
        <ele>1545.456543</ele>
        <time>2011-09-08T11:27:52Z</time>
      </trkpt>
      <trkpt lat="44.27955" lon="6.19959">
        <ele>1544.4951172</ele>
        <time>2011-09-08T11:27:58Z</time>
      </trkpt>
      <trkpt lat="44.27978" lon="6.19947">
        <ele>1541.1306152</ele>
        <time>2011-09-08T11:28:07Z</time>
      </trkpt>
      <trkpt lat="44.2799" lon="6.19941">
        <ele>1538.2468262</ele>
        <time>2011-09-08T11:28:12Z</time>
      </trkpt>
      <trkpt lat="44.2801" lon="6.19929">
        <ele>1534.4016113</ele>
        <time>2011-09-08T11:28:20Z</time>
      </trkpt>
      <trkpt lat="44.28011" lon="6.19928">
        <ele>1534.4016113</ele>
        <time>2011-09-08T11:28:21Z</time>
      </trkpt>
      <trkpt lat="44.28031" lon="6.19913">
        <ele>1530.5561523</ele>
        <time>2011-09-08T11:28:31Z</time>
      </trkpt>
      <trkpt lat="44.28055" lon="6.19906">
        <ele>1527.1916504</ele>
        <time>2011-09-08T11:28:40Z</time>
      </trkpt>
      <trkpt lat="44.28084" lon="6.199">
        <ele>1523.3464355</ele>
        <time>2011-09-08T11:28:52Z</time>
      </trkpt>
      <trkpt lat="44.28091" lon="6.19868">
        <ele>1519.9816895</ele>
        <time>2011-09-08T11:29:03Z</time>
      </trkpt>
      <trkpt lat="44.28089" lon="6.19861">
        <ele>1519.0205078</ele>
        <time>2011-09-08T11:29:05Z</time>
      </trkpt>
      <trkpt lat="44.28082" lon="6.19851">
        <ele>1517.0979004</ele>
        <time>2011-09-08T11:29:09Z</time>
      </trkpt>
      <trkpt lat="44.28075" lon="6.19843">
        <ele>1514.213623</ele>
        <time>2011-09-08T11:29:12Z</time>
      </trkpt>
      <trkpt lat="44.28078" lon="6.19816">
        <ele>1509.8876953</ele>
        <time>2011-09-08T11:29:18Z</time>
      </trkpt>
      <trkpt lat="44.2808" lon="6.19815">
        <ele>1509.8876953</ele>
        <time>2011-09-08T11:29:19Z</time>
      </trkpt>
      <trkpt lat="44.28099" lon="6.198">
        <ele>1506.0424805</ele>
        <time>2011-09-08T11:29:26Z</time>
      </trkpt>
      <trkpt lat="44.28102" lon="6.19794">
        <ele>1505.0812988</ele>
        <time>2011-09-08T11:29:28Z</time>
      </trkpt>
      <trkpt lat="44.28105" lon="6.19789">
        <ele>1503.1586914</ele>
        <time>2011-09-08T11:29:30Z</time>
      </trkpt>
      <trkpt lat="44.28113" lon="6.19778">
        <ele>1500.7553711</ele>
        <time>2011-09-08T11:29:35Z</time>
      </trkpt>
      <trkpt lat="44.28115" lon="6.19775">
        <ele>1499.7939453</ele>
        <time>2011-09-08T11:29:37Z</time>
      </trkpt>
      <trkpt lat="44.28125" lon="6.19766">
        <ele>1496.4294434</ele>
        <time>2011-09-08T11:29:43Z</time>
      </trkpt>
      <trkpt lat="44.28136" lon="6.19757">
        <ele>1494.026123</ele>
        <time>2011-09-08T11:29:49Z</time>
      </trkpt>
      <trkpt lat="44.28153" lon="6.19744">
        <ele>1490.1809082</ele>
        <time>2011-09-08T11:29:57Z</time>
      </trkpt>
      <trkpt lat="44.28168" lon="6.19734">
        <ele>1486.8161621</ele>
        <time>2011-09-08T11:30:06Z</time>
      </trkpt>
      <trkpt lat="44.28179" lon="6.19725">
        <ele>1484.8937988</ele>
        <time>2011-09-08T11:30:12Z</time>
      </trkpt>
      <trkpt lat="44.28186" lon="6.19712">
        <ele>1482.0095215</ele>
        <time>2011-09-08T11:30:18Z</time>
      </trkpt>
      <trkpt lat="44.28193" lon="6.19703">
        <ele>1482.0095215</ele>
        <time>2011-09-08T11:30:25Z</time>
      </trkpt>
      <trkpt lat="44.28216" lon="6.19682">
        <ele>1479.1254883</ele>
        <time>2011-09-08T11:30:36Z</time>
      </trkpt>
      <trkpt lat="44.28218" lon="6.1968">
        <ele>1479.1254883</ele>
        <time>2011-09-08T11:30:37Z</time>
      </trkpt>
      <trkpt lat="44.28237" lon="6.19666">
        <ele>1476.7224121</ele>
        <time>2011-09-08T11:30:42Z</time>
      </trkpt>
      <trkpt lat="44.28247" lon="6.19659">
        <ele>1475.2802734</ele>
        <time>2011-09-08T11:30:46Z</time>
      </trkpt>
      <trkpt lat="44.28266" lon="6.19644">
        <ele>1472.3964844</ele>
        <time>2011-09-08T11:30:55Z</time>
      </trkpt>
      <trkpt lat="44.28286" lon="6.19629">
        <ele>1469.5126953</ele>
        <time>2011-09-08T11:31:03Z</time>
      </trkpt>
      <trkpt lat="44.283" lon="6.1962">
        <ele>1467.1091309</ele>
        <time>2011-09-08T11:31:10Z</time>
      </trkpt>
      <trkpt lat="44.28312" lon="6.19612">
        <ele>1464.2250977</ele>
        <time>2011-09-08T11:31:17Z</time>
      </trkpt>
      <trkpt lat="44.28332" lon="6.19591">
        <ele>1460.8605957</ele>
        <time>2011-09-08T11:31:29Z</time>
      </trkpt>
      <trkpt lat="44.28346" lon="6.19574">
        <ele>1457.4960938</ele>
        <time>2011-09-08T11:31:38Z</time>
      </trkpt>
      <trkpt lat="44.28346" lon="6.19557">
        <ele>1457.9768066</ele>
        <time>2011-09-08T11:32:01Z</time>
      </trkpt>
      <trkpt lat="44.28346" lon="6.19553">
        <ele>1457.0153809</ele>
        <time>2011-09-08T11:32:10Z</time>
      </trkpt>
      <trkpt lat="44.28346" lon="6.19523">
        <ele>1456.534668</ele>
        <time>2011-09-08T11:32:23Z</time>
      </trkpt>
      <trkpt lat="44.28346" lon="6.19517">
        <ele>1456.534668</ele>
        <time>2011-09-08T11:32:24Z</time>
      </trkpt>
      <trkpt lat="44.28367" lon="6.19498">
        <ele>1456.0539551</ele>
        <time>2011-09-08T11:32:32Z</time>
      </trkpt>
      <trkpt lat="44.28414" lon="6.19474">
        <ele>1456.0539551</ele>
        <time>2011-09-08T11:32:48Z</time>
      </trkpt>
      <trkpt lat="44.28466" lon="6.19468">
        <ele>1456.534668</ele>
        <time>2011-09-08T11:33:06Z</time>
      </trkpt>
      <trkpt lat="44.28514" lon="6.19449">
        <ele>1455.5734863</ele>
        <time>2011-09-08T11:33:21Z</time>
      </trkpt>
      <trkpt lat="44.28531" lon="6.19401">
        <ele>1454.6120605</ele>
        <time>2011-09-08T11:33:31Z</time>
      </trkpt>
      <trkpt lat="44.28544" lon="6.19377">
        <ele>1455.0927734</ele>
        <time>2011-09-08T11:33:39Z</time>
      </trkpt>
      <trkpt lat="44.28574" lon="6.19342">
        <ele>1454.6120605</ele>
        <time>2011-09-08T11:33:51Z</time>
      </trkpt>
      <trkpt lat="44.28579" lon="6.19306">
        <ele>1454.1315918</ele>
        <time>2011-09-08T11:33:58Z</time>
      </trkpt>
      <trkpt lat="44.28617" lon="6.1929">
        <ele>1453.6508789</ele>
        <time>2011-09-08T11:34:09Z</time>
      </trkpt>
      <trkpt lat="44.28662" lon="6.1928">
        <ele>1452.2087402</ele>
        <time>2011-09-08T11:34:20Z</time>
      </trkpt>
      <trkpt lat="44.287" lon="6.19253">
        <ele>1451.7280273</ele>
        <time>2011-09-08T11:34:30Z</time>
      </trkpt>
      <trkpt lat="44.28733" lon="6.19208">
        <ele>1450.7666016</ele>
        <time>2011-09-08T11:34:40Z</time>
      </trkpt>
      <trkpt lat="44.28764" lon="6.1914">
        <ele>1449.8054199</ele>
        <time>2011-09-08T11:34:52Z</time>
      </trkpt>
      <trkpt lat="44.2877" lon="6.1913">
        <ele>1450.2861328</ele>
        <time>2011-09-08T11:34:54Z</time>
      </trkpt>
      <trkpt lat="44.28771" lon="6.19089">
        <ele>1450.2861328</ele>
        <time>2011-09-08T11:35:01Z</time>
      </trkpt>
      <trkpt lat="44.28767" lon="6.19057">
        <ele>1449.8054199</ele>
        <time>2011-09-08T11:35:07Z</time>
      </trkpt>
      <trkpt lat="44.28772" lon="6.19042">
        <ele>1450.2861328</ele>
        <time>2011-09-08T11:35:10Z</time>
      </trkpt>
      <trkpt lat="44.28761" lon="6.18993">
        <ele>1449.324707</ele>
        <time>2011-09-08T11:35:19Z</time>
      </trkpt>
      <trkpt lat="44.28735" lon="6.18999">
        <ele>1448.8439941</ele>
        <time>2011-09-08T11:35:25Z</time>
      </trkpt>
      <trkpt lat="44.28727" lon="6.19004">
        <ele>1448.8439941</ele>
        <time>2011-09-08T11:35:27Z</time>
      </trkpt>
      <trkpt lat="44.28686" lon="6.18986">
        <ele>1448.3632813</ele>
        <time>2011-09-08T11:35:37Z</time>
      </trkpt>
      <trkpt lat="44.28686" lon="6.18959">
        <ele>1448.3632813</ele>
        <time>2011-09-08T11:35:43Z</time>
      </trkpt>
      <trkpt lat="44.28711" lon="6.18889">
        <ele>1449.8054199</ele>
        <time>2011-09-08T11:36:02Z</time>
      </trkpt>
      <trkpt lat="44.28729" lon="6.18819">
        <ele>1450.2861328</ele>
        <time>2011-09-08T11:36:22Z</time>
      </trkpt>
      <trkpt lat="44.28738" lon="6.18797">
        <ele>1450.7666016</ele>
        <time>2011-09-08T11:36:30Z</time>
      </trkpt>
      <trkpt lat="44.28741" lon="6.18786">
        <ele>1451.2473145</ele>
        <time>2011-09-08T11:36:42Z</time>
      </trkpt>
      <trkpt lat="44.28741" lon="6.18769">
        <ele>1451.2473145</ele>
        <time>2011-09-08T11:36:47Z</time>
      </trkpt>
      <trkpt lat="44.28733" lon="6.18746">
        <ele>1453.170166</ele>
        <time>2011-09-08T11:36:52Z</time>
      </trkpt>
      <trkpt lat="44.28716" lon="6.18716">
        <ele>1451.2473145</ele>
        <time>2011-09-08T11:36:59Z</time>
      </trkpt>
      <trkpt lat="44.28671" lon="6.18658">
        <ele>1449.8054199</ele>
        <time>2011-09-08T11:37:15Z</time>
      </trkpt>
      <trkpt lat="44.28664" lon="6.18645">
        <ele>1448.8439941</ele>
        <time>2011-09-08T11:37:18Z</time>
      </trkpt>
      <trkpt lat="44.2867" lon="6.18619">
        <ele>1449.324707</ele>
        <time>2011-09-08T11:37:25Z</time>
      </trkpt>
      <trkpt lat="44.28713" lon="6.18624">
        <ele>1450.7666016</ele>
        <time>2011-09-08T11:37:37Z</time>
      </trkpt>
      <trkpt lat="44.28729" lon="6.18619">
        <ele>1450.2861328</ele>
        <time>2011-09-08T11:37:41Z</time>
      </trkpt>
      <trkpt lat="44.2874" lon="6.1861">
        <ele>1449.324707</ele>
        <time>2011-09-08T11:37:44Z</time>
      </trkpt>
      <trkpt lat="44.28751" lon="6.18601">
        <ele>1449.8054199</ele>
        <time>2011-09-08T11:37:47Z</time>
      </trkpt>
      <trkpt lat="44.2881" lon="6.18556">
        <ele>1450.2861328</ele>
        <time>2011-09-08T11:38:05Z</time>
      </trkpt>
      <trkpt lat="44.28853" lon="6.18515">
        <ele>1451.2473145</ele>
        <time>2011-09-08T11:38:21Z</time>
      </trkpt>
      <trkpt lat="44.28864" lon="6.18462">
        <ele>1451.2473145</ele>
        <time>2011-09-08T11:38:31Z</time>
      </trkpt>
      <trkpt lat="44.28878" lon="6.1846">
        <ele>1452.2087402</ele>
        <time>2011-09-08T11:38:36Z</time>
      </trkpt>
      <trkpt lat="44.28906" lon="6.18493">
        <ele>1452.6894531</ele>
        <time>2011-09-08T11:38:50Z</time>
      </trkpt>
      <trkpt lat="44.2895" lon="6.18505">
        <ele>1453.170166</ele>
        <time>2011-09-08T11:39:05Z</time>
      </trkpt>
      <trkpt lat="44.29001" lon="6.18493">
        <ele>1451.2473145</ele>
        <time>2011-09-08T11:39:19Z</time>
      </trkpt>
      <trkpt lat="44.29027" lon="6.18482">
        <ele>1449.8054199</ele>
        <time>2011-09-08T11:39:25Z</time>
      </trkpt>
      <trkpt lat="44.29052" lon="6.18456">
        <ele>1448.3632813</ele>
        <time>2011-09-08T11:39:32Z</time>
      </trkpt>
      <trkpt lat="44.29074" lon="6.18436">
        <ele>1446.440918</ele>
        <time>2011-09-08T11:39:38Z</time>
      </trkpt>
      <trkpt lat="44.29098" lon="6.18419">
        <ele>1444.5180664</ele>
        <time>2011-09-08T11:39:44Z</time>
      </trkpt>
      <trkpt lat="44.29123" lon="6.18423">
        <ele>1443.0761719</ele>
        <time>2011-09-08T11:39:51Z</time>
      </trkpt>
      <trkpt lat="44.2915" lon="6.18425">
        <ele>1440.6728516</ele>
        <time>2011-09-08T11:39:58Z</time>
      </trkpt>
      <trkpt lat="44.29161" lon="6.18381">
        <ele>1437.3083496</ele>
        <time>2011-09-08T11:40:06Z</time>
      </trkpt>
      <trkpt lat="44.29159" lon="6.18375">
        <ele>1437.3083496</ele>
        <time>2011-09-08T11:40:07Z</time>
      </trkpt>
      <trkpt lat="44.29153" lon="6.1835">
        <ele>1434.9050293</ele>
        <time>2011-09-08T11:40:12Z</time>
      </trkpt>
      <trkpt lat="44.2916" lon="6.18325">
        <ele>1432.9821777</ele>
        <time>2011-09-08T11:40:18Z</time>
      </trkpt>
      <trkpt lat="44.29164" lon="6.18275">
        <ele>1429.6176758</ele>
        <time>2011-09-08T11:40:27Z</time>
      </trkpt>
      <trkpt lat="44.29167" lon="6.18266">
        <ele>1428.6564941</ele>
        <time>2011-09-08T11:40:29Z</time>
      </trkpt>
      <trkpt lat="44.29182" lon="6.18256">
        <ele>1427.6950684</ele>
        <time>2011-09-08T11:40:35Z</time>
      </trkpt>
      <trkpt lat="44.29215" lon="6.18264">
        <ele>1424.8112793</ele>
        <time>2011-09-08T11:40:44Z</time>
      </trkpt>
      <trkpt lat="44.29232" lon="6.18267">
        <ele>1423.8498535</ele>
        <time>2011-09-08T11:40:48Z</time>
      </trkpt>
      <trkpt lat="44.2925" lon="6.18265">
        <ele>1422.407959</ele>
        <time>2011-09-08T11:40:53Z</time>
      </trkpt>
      <trkpt lat="44.29266" lon="6.18252">
        <ele>1420.4853516</ele>
        <time>2011-09-08T11:40:57Z</time>
      </trkpt>
      <trkpt lat="44.29283" lon="6.18227">
        <ele>1420.4853516</ele>
        <time>2011-09-08T11:41:02Z</time>
      </trkpt>
      <trkpt lat="44.29294" lon="6.18208">
        <ele>1418.5625</ele>
        <time>2011-09-08T11:41:06Z</time>
      </trkpt>
      <trkpt lat="44.29308" lon="6.18178">
        <ele>1419.5239258</ele>
        <time>2011-09-08T11:41:19Z</time>
      </trkpt>
      <trkpt lat="44.29308" lon="6.18178">
        <ele>1416.1591797</ele>
        <time>2011-09-08T11:41:41Z</time>
      </trkpt>
      <trkpt lat="44.29308" lon="6.18178">
        <ele>1416.1591797</ele>
        <time>2011-09-08T11:41:42Z</time>
      </trkpt>
      <trkpt lat="44.29308" lon="6.18178">
        <ele>1421.4465332</ele>
        <time>2011-09-08T11:41:43Z</time>
      </trkpt>
      <trkpt lat="44.29308" lon="6.18178">
        <ele>1421.4465332</ele>
        <time>2011-09-08T11:41:44Z</time>
      </trkpt>
      <trkpt lat="44.29308" lon="6.18178">
        <ele>1418.5625</ele>
        <time>2011-09-08T11:41:46Z</time>
      </trkpt>
      <trkpt lat="44.29308" lon="6.18178">
        <ele>1418.0817871</ele>
        <time>2011-09-08T11:41:58Z</time>
      </trkpt>
      <trkpt lat="44.29308" lon="6.18178">
        <ele>1419.0432129</ele>
        <time>2011-09-08T11:42:02Z</time>
      </trkpt>
      <trkpt lat="44.29308" lon="6.18178">
        <ele>1419.0432129</ele>
        <time>2011-09-08T11:42:19Z</time>
      </trkpt>
      <trkpt lat="44.29308" lon="6.18178">
        <ele>1418.5625</ele>
        <time>2011-09-08T11:42:24Z</time>
      </trkpt>
      <trkpt lat="44.29308" lon="6.18178">
        <ele>1418.5625</ele>
        <time>2011-09-08T11:42:34Z</time>
      </trkpt>
      <trkpt lat="44.29308" lon="6.18178">
        <ele>1418.0817871</ele>
        <time>2011-09-08T11:43:04Z</time>
      </trkpt>
      <trkpt lat="44.29321" lon="6.18111">
        <ele>1419.5239258</ele>
        <time>2011-09-08T11:43:22Z</time>
      </trkpt>
      <trkpt lat="44.29309" lon="6.18044">
        <ele>1420.4853516</ele>
        <time>2011-09-08T11:43:41Z</time>
      </trkpt>
      <trkpt lat="44.29276" lon="6.18006">
        <ele>1422.407959</ele>
        <time>2011-09-08T11:43:57Z</time>
      </trkpt>
      <trkpt lat="44.2925" lon="6.17979">
        <ele>1423.8498535</ele>
        <time>2011-09-08T11:44:10Z</time>
      </trkpt>
      <trkpt lat="44.29254" lon="6.17967">
        <ele>1422.407959</ele>
        <time>2011-09-08T11:44:16Z</time>
      </trkpt>
      <trkpt lat="44.29258" lon="6.17966">
        <ele>1422.8886719</ele>
        <time>2011-09-08T11:44:20Z</time>
      </trkpt>
      <trkpt lat="44.29301" lon="6.17974">
        <ele>1423.3693848</ele>
        <time>2011-09-08T11:44:36Z</time>
      </trkpt>
      <trkpt lat="44.29352" lon="6.17983">
        <ele>1422.8886719</ele>
        <time>2011-09-08T11:44:52Z</time>
      </trkpt>
      <trkpt lat="44.29374" lon="6.17997">
        <ele>1421.9272461</ele>
        <time>2011-09-08T11:44:58Z</time>
      </trkpt>
      <trkpt lat="44.29387" lon="6.18007">
        <ele>1421.4465332</ele>
        <time>2011-09-08T11:45:02Z</time>
      </trkpt>
      <trkpt lat="44.29421" lon="6.18022">
        <ele>1420.9660645</ele>
        <time>2011-09-08T11:45:11Z</time>
      </trkpt>
      <trkpt lat="44.29459" lon="6.17983">
        <ele>1420.4853516</ele>
        <time>2011-09-08T11:45:22Z</time>
      </trkpt>
      <trkpt lat="44.29465" lon="6.17967">
        <ele>1420.0046387</ele>
        <time>2011-09-08T11:45:26Z</time>
      </trkpt>
      <trkpt lat="44.2948" lon="6.17948">
        <ele>1418.5625</ele>
        <time>2011-09-08T11:45:32Z</time>
      </trkpt>
      <trkpt lat="44.29537" lon="6.17926">
        <ele>1418.5625</ele>
        <time>2011-09-08T11:45:47Z</time>
      </trkpt>
      <trkpt lat="44.29563" lon="6.17919">
        <ele>1420.9660645</ele>
        <time>2011-09-08T11:45:59Z</time>
      </trkpt>
      <trkpt lat="44.29598" lon="6.17901">
        <ele>1421.9272461</ele>
        <time>2011-09-08T11:46:15Z</time>
      </trkpt>
      <trkpt lat="44.29619" lon="6.17854">
        <ele>1423.3693848</ele>
        <time>2011-09-08T11:46:31Z</time>
      </trkpt>
      <trkpt lat="44.29599" lon="6.17802">
        <ele>1425.291748</ele>
        <time>2011-09-08T11:46:49Z</time>
      </trkpt>
      <trkpt lat="44.29595" lon="6.17792">
        <ele>1425.7724609</ele>
        <time>2011-09-08T11:46:53Z</time>
      </trkpt>
      <trkpt lat="44.29591" lon="6.17779">
        <ele>1426.2531738</ele>
        <time>2011-09-08T11:46:59Z</time>
      </trkpt>
      <trkpt lat="44.29589" lon="6.17756">
        <ele>1427.6950684</ele>
        <time>2011-09-08T11:47:09Z</time>
      </trkpt>
      <trkpt lat="44.29589" lon="6.17747">
        <ele>1428.1757813</ele>
        <time>2011-09-08T11:47:13Z</time>
      </trkpt>
      <trkpt lat="44.2959" lon="6.17742">
        <ele>1428.1757813</ele>
        <time>2011-09-08T11:47:15Z</time>
      </trkpt>
      <trkpt lat="44.29585" lon="6.17703">
        <ele>1428.6564941</ele>
        <time>2011-09-08T11:47:30Z</time>
      </trkpt>
      <trkpt lat="44.29561" lon="6.17681">
        <ele>1429.1369629</ele>
        <time>2011-09-08T11:47:43Z</time>
      </trkpt>
      <trkpt lat="44.29526" lon="6.17647">
        <ele>1427.2145996</ele>
        <time>2011-09-08T11:47:57Z</time>
      </trkpt>
      <trkpt lat="44.295" lon="6.17585">
        <ele>1426.2531738</ele>
        <time>2011-09-08T11:48:14Z</time>
      </trkpt>
      <trkpt lat="44.29499" lon="6.17564">
        <ele>1424.8112793</ele>
        <time>2011-09-08T11:48:18Z</time>
      </trkpt>
      <trkpt lat="44.29499" lon="6.17525">
        <ele>1421.4465332</ele>
        <time>2011-09-08T11:48:26Z</time>
      </trkpt>
      <trkpt lat="44.29509" lon="6.17497">
        <ele>1420.9660645</ele>
        <time>2011-09-08T11:48:33Z</time>
      </trkpt>
      <trkpt lat="44.29517" lon="6.17482">
        <ele>1420.4853516</ele>
        <time>2011-09-08T11:48:36Z</time>
      </trkpt>
      <trkpt lat="44.29526" lon="6.17452">
        <ele>1419.0432129</ele>
        <time>2011-09-08T11:48:41Z</time>
      </trkpt>
      <trkpt lat="44.29532" lon="6.1739">
        <ele>1417.6010742</ele>
        <time>2011-09-08T11:48:51Z</time>
      </trkpt>
      <trkpt lat="44.29535" lon="6.17329">
        <ele>1418.5625</ele>
        <time>2011-09-08T11:49:04Z</time>
      </trkpt>
      <trkpt lat="44.29531" lon="6.1727">
        <ele>1420.4853516</ele>
        <time>2011-09-08T11:49:22Z</time>
      </trkpt>
      <trkpt lat="44.29533" lon="6.17234">
        <ele>1422.407959</ele>
        <time>2011-09-08T11:49:41Z</time>
      </trkpt>
      <trkpt lat="44.29561" lon="6.17224">
        <ele>1421.4465332</ele>
        <time>2011-09-08T11:49:54Z</time>
      </trkpt>
      <trkpt lat="44.29571" lon="6.17221">
        <ele>1421.9272461</ele>
        <time>2011-09-08T11:49:58Z</time>
      </trkpt>
      <trkpt lat="44.29594" lon="6.1723">
        <ele>1420.4853516</ele>
        <time>2011-09-08T11:50:06Z</time>
      </trkpt>
      <trkpt lat="44.29615" lon="6.17247">
        <ele>1419.0432129</ele>
        <time>2011-09-08T11:50:13Z</time>
      </trkpt>
      <trkpt lat="44.29657" lon="6.17227">
        <ele>1419.5239258</ele>
        <time>2011-09-08T11:50:24Z</time>
      </trkpt>
      <trkpt lat="44.29686" lon="6.17165">
        <ele>1419.5239258</ele>
        <time>2011-09-08T11:50:38Z</time>
      </trkpt>
      <trkpt lat="44.2969" lon="6.17142">
        <ele>1417.1206055</ele>
        <time>2011-09-08T11:50:44Z</time>
      </trkpt>
      <trkpt lat="44.29706" lon="6.17115">
        <ele>1414.7172852</ele>
        <time>2011-09-08T11:50:51Z</time>
      </trkpt>
      <trkpt lat="44.29725" lon="6.17095">
        <ele>1412.7946777</ele>
        <time>2011-09-08T11:50:58Z</time>
      </trkpt>
      <trkpt lat="44.29755" lon="6.1707">
        <ele>1408.9494629</ele>
        <time>2011-09-08T11:51:08Z</time>
      </trkpt>
      <trkpt lat="44.29769" lon="6.17024">
        <ele>1405.5849609</ele>
        <time>2011-09-08T11:51:17Z</time>
      </trkpt>
      <trkpt lat="44.29769" lon="6.17001">
        <ele>1403.6621094</ele>
        <time>2011-09-08T11:51:21Z</time>
      </trkpt>
      <trkpt lat="44.29777" lon="6.16974">
        <ele>1401.2587891</ele>
        <time>2011-09-08T11:51:27Z</time>
      </trkpt>
      <trkpt lat="44.29797" lon="6.16941">
        <ele>1398.3747559</ele>
        <time>2011-09-08T11:51:35Z</time>
      </trkpt>
      <trkpt lat="44.29829" lon="6.16908">
        <ele>1395.4909668</ele>
        <time>2011-09-08T11:51:43Z</time>
      </trkpt>
      <trkpt lat="44.29843" lon="6.16886">
        <ele>1395.4909668</ele>
        <time>2011-09-08T11:51:48Z</time>
      </trkpt>
      <trkpt lat="44.29848" lon="6.16867">
        <ele>1395.0102539</ele>
        <time>2011-09-08T11:51:51Z</time>
      </trkpt>
      <trkpt lat="44.29851" lon="6.16812">
        <ele>1394.529541</ele>
        <time>2011-09-08T11:52:00Z</time>
      </trkpt>
      <trkpt lat="44.29858" lon="6.16785">
        <ele>1393.0876465</ele>
        <time>2011-09-08T11:52:05Z</time>
      </trkpt>
      <trkpt lat="44.29872" lon="6.16725">
        <ele>1389.7231445</ele>
        <time>2011-09-08T11:52:13Z</time>
      </trkpt>
      <trkpt lat="44.2988" lon="6.16704">
        <ele>1388.7619629</ele>
        <time>2011-09-08T11:52:17Z</time>
      </trkpt>
      <trkpt lat="44.29891" lon="6.16684">
        <ele>1387.800293</ele>
        <time>2011-09-08T11:52:21Z</time>
      </trkpt>
      <trkpt lat="44.29906" lon="6.16636">
        <ele>1384.435791</ele>
        <time>2011-09-08T11:52:29Z</time>
      </trkpt>
      <trkpt lat="44.29906" lon="6.16628">
        <ele>1384.435791</ele>
        <time>2011-09-08T11:52:30Z</time>
      </trkpt>
      <trkpt lat="44.29907" lon="6.16621">
        <ele>1383.4743652</ele>
        <time>2011-09-08T11:52:31Z</time>
      </trkpt>
      <trkpt lat="44.29915" lon="6.16583">
        <ele>1383.4743652</ele>
        <time>2011-09-08T11:52:39Z</time>
      </trkpt>
      <trkpt lat="44.29924" lon="6.16569">
        <ele>1382.5131836</ele>
        <time>2011-09-08T11:52:43Z</time>
      </trkpt>
      <trkpt lat="44.29942" lon="6.16551">
        <ele>1380.5905762</ele>
        <time>2011-09-08T11:52:48Z</time>
      </trkpt>
      <trkpt lat="44.29993" lon="6.16483">
        <ele>1379.6291504</ele>
        <time>2011-09-08T11:53:03Z</time>
      </trkpt>
      <trkpt lat="44.30012" lon="6.16454">
        <ele>1378.6679688</ele>
        <time>2011-09-08T11:53:09Z</time>
      </trkpt>
      <trkpt lat="44.30015" lon="6.16432">
        <ele>1377.2260742</ele>
        <time>2011-09-08T11:53:12Z</time>
      </trkpt>
      <trkpt lat="44.30014" lon="6.16405">
        <ele>1376.2646484</ele>
        <time>2011-09-08T11:53:16Z</time>
      </trkpt>
      <trkpt lat="44.30007" lon="6.16386">
        <ele>1374.8227539</ele>
        <time>2011-09-08T11:53:19Z</time>
      </trkpt>
      <trkpt lat="44.3" lon="6.1637">
        <ele>1373.8613281</ele>
        <time>2011-09-08T11:53:22Z</time>
      </trkpt>
      <trkpt lat="44.29995" lon="6.16359">
        <ele>1372.9001465</ele>
        <time>2011-09-08T11:53:24Z</time>
      </trkpt>
      <trkpt lat="44.29988" lon="6.16339">
        <ele>1370.496582</ele>
        <time>2011-09-08T11:53:28Z</time>
      </trkpt>
      <trkpt lat="44.29988" lon="6.16336">
        <ele>1369.0546875</ele>
        <time>2011-09-08T11:53:33Z</time>
      </trkpt>
      <trkpt lat="44.29986" lon="6.16329">
        <ele>1369.0546875</ele>
        <time>2011-09-08T11:53:59Z</time>
      </trkpt>
      <trkpt lat="44.29986" lon="6.16321">
        <ele>1369.5354004</ele>
        <time>2011-09-08T11:54:01Z</time>
      </trkpt>
      <trkpt lat="44.29988" lon="6.16304">
        <ele>1368.5739746</ele>
        <time>2011-09-08T11:54:04Z</time>
      </trkpt>
      <trkpt lat="44.30003" lon="6.16262">
        <ele>1366.1706543</ele>
        <time>2011-09-08T11:54:13Z</time>
      </trkpt>
      <trkpt lat="44.30012" lon="6.16257">
        <ele>1364.7287598</ele>
        <time>2011-09-08T11:54:17Z</time>
      </trkpt>
      <trkpt lat="44.30032" lon="6.16252">
        <ele>1361.8449707</ele>
        <time>2011-09-08T11:54:24Z</time>
      </trkpt>
      <trkpt lat="44.30064" lon="6.16256">
        <ele>1360.8835449</ele>
        <time>2011-09-08T11:54:35Z</time>
      </trkpt>
      <trkpt lat="44.30099" lon="6.16252">
        <ele>1359.4416504</ele>
        <time>2011-09-08T11:54:48Z</time>
      </trkpt>
      <trkpt lat="44.30124" lon="6.16234">
        <ele>1358.9609375</ele>
        <time>2011-09-08T11:54:56Z</time>
      </trkpt>
      <trkpt lat="44.30151" lon="6.16239">
        <ele>1358.9609375</ele>
        <time>2011-09-08T11:55:07Z</time>
      </trkpt>
      <trkpt lat="44.30172" lon="6.16221">
        <ele>1357.9997559</ele>
        <time>2011-09-08T11:55:12Z</time>
      </trkpt>
      <trkpt lat="44.30191" lon="6.16192">
        <ele>1356.5576172</ele>
        <time>2011-09-08T11:55:18Z</time>
      </trkpt>
      <trkpt lat="44.30212" lon="6.16154">
        <ele>1355.5961914</ele>
        <time>2011-09-08T11:55:28Z</time>
      </trkpt>
      <trkpt lat="44.30222" lon="6.16105">
        <ele>1353.673584</ele>
        <time>2011-09-08T11:55:38Z</time>
      </trkpt>
      <trkpt lat="44.30232" lon="6.16054">
        <ele>1350.309082</ele>
        <time>2011-09-08T11:55:48Z</time>
      </trkpt>
      <trkpt lat="44.30237" lon="6.16038">
        <ele>1348.3862305</ele>
        <time>2011-09-08T11:55:51Z</time>
      </trkpt>
      <trkpt lat="44.30253" lon="6.15989">
        <ele>1346.9443359</ele>
        <time>2011-09-08T11:55:59Z</time>
      </trkpt>
      <trkpt lat="44.30283" lon="6.15957">
        <ele>1345.9831543</ele>
        <time>2011-09-08T11:56:10Z</time>
      </trkpt>
      <trkpt lat="44.30299" lon="6.15941">
        <ele>1345.5024414</ele>
        <time>2011-09-08T11:56:15Z</time>
      </trkpt>
      <trkpt lat="44.30348" lon="6.15958">
        <ele>1345.9831543</ele>
        <time>2011-09-08T11:56:30Z</time>
      </trkpt>
      <trkpt lat="44.30381" lon="6.15921">
        <ele>1345.9831543</ele>
        <time>2011-09-08T11:56:41Z</time>
      </trkpt>
      <trkpt lat="44.30422" lon="6.15846">
        <ele>1344.5410156</ele>
        <time>2011-09-08T11:56:59Z</time>
      </trkpt>
      <trkpt lat="44.3043" lon="6.15792">
        <ele>1341.6572266</ele>
        <time>2011-09-08T11:57:09Z</time>
      </trkpt>
      <trkpt lat="44.30439" lon="6.15764">
        <ele>1338.7731934</ele>
        <time>2011-09-08T11:57:19Z</time>
      </trkpt>
      <trkpt lat="44.3044" lon="6.15763">
        <ele>1338.7731934</ele>
        <time>2011-09-08T11:57:20Z</time>
      </trkpt>
      <trkpt lat="44.30445" lon="6.15727">
        <ele>1335.4084473</ele>
        <time>2011-09-08T11:57:30Z</time>
      </trkpt>
      <trkpt lat="44.30443" lon="6.15679">
        <ele>1332.5246582</ele>
        <time>2011-09-08T11:57:44Z</time>
      </trkpt>
      <trkpt lat="44.30443" lon="6.15654">
        <ele>1330.1213379</ele>
        <time>2011-09-08T11:57:50Z</time>
      </trkpt>
      <trkpt lat="44.30443" lon="6.15646">
        <ele>1328.6794434</ele>
        <time>2011-09-08T11:57:52Z</time>
      </trkpt>
      <trkpt lat="44.30443" lon="6.15639">
        <ele>1327.7180176</ele>
        <time>2011-09-08T11:57:54Z</time>
      </trkpt>
      <trkpt lat="44.30443" lon="6.1563">
        <ele>1326.7568359</ele>
        <time>2011-09-08T11:57:57Z</time>
      </trkpt>
      <trkpt lat="44.30443" lon="6.15617">
        <ele>1325.3146973</ele>
        <time>2011-09-08T11:58:01Z</time>
      </trkpt>
      <trkpt lat="44.30448" lon="6.15589">
        <ele>1322.4306641</ele>
        <time>2011-09-08T11:58:10Z</time>
      </trkpt>
      <trkpt lat="44.30453" lon="6.15553">
        <ele>1319.546875</ele>
        <time>2011-09-08T11:58:20Z</time>
      </trkpt>
      <trkpt lat="44.30462" lon="6.15509">
        <ele>1317.1435547</ele>
        <time>2011-09-08T11:58:33Z</time>
      </trkpt>
      <trkpt lat="44.30466" lon="6.1544">
        <ele>1316.6628418</ele>
        <time>2011-09-08T11:58:45Z</time>
      </trkpt>
      <trkpt lat="44.30466" lon="6.15358">
        <ele>1314.7402344</ele>
        <time>2011-09-08T11:59:01Z</time>
      </trkpt>
      <trkpt lat="44.30465" lon="6.15335">
        <ele>1313.2983398</ele>
        <time>2011-09-08T11:59:06Z</time>
      </trkpt>
      <trkpt lat="44.30465" lon="6.15328">
        <ele>1311.8564453</ele>
        <time>2011-09-08T11:59:11Z</time>
      </trkpt>
      <trkpt lat="44.30465" lon="6.15328">
        <ele>1311.8564453</ele>
        <time>2011-09-08T11:59:13Z</time>
      </trkpt>
      <trkpt lat="44.3046" lon="6.15326">
        <ele>1311.8564453</ele>
        <time>2011-09-08T11:59:17Z</time>
      </trkpt>
      <trkpt lat="44.30475" lon="6.15303">
        <ele>1309.453125</ele>
        <time>2011-09-08T11:59:25Z</time>
      </trkpt>
      <trkpt lat="44.30478" lon="6.1529">
        <ele>1309.453125</ele>
        <time>2011-09-08T11:59:28Z</time>
      </trkpt>
      <trkpt lat="44.30481" lon="6.15279">
        <ele>1307.5302734</ele>
        <time>2011-09-08T11:59:32Z</time>
      </trkpt>
      <trkpt lat="44.30491" lon="6.1526">
        <ele>1306.0881348</ele>
        <time>2011-09-08T11:59:37Z</time>
      </trkpt>
      <trkpt lat="44.30491" lon="6.15225">
        <ele>1303.6850586</ele>
        <time>2011-09-08T11:59:43Z</time>
      </trkpt>
      <trkpt lat="44.30493" lon="6.1517">
        <ele>1302.2429199</ele>
        <time>2011-09-08T11:59:55Z</time>
      </trkpt>
      <trkpt lat="44.30501" lon="6.15131">
        <ele>1300.8010254</ele>
        <time>2011-09-08T12:00:06Z</time>
      </trkpt>
      <trkpt lat="44.30487" lon="6.15118">
        <ele>1301.2817383</ele>
        <time>2011-09-08T12:00:12Z</time>
      </trkpt>
      <trkpt lat="44.30481" lon="6.15104">
        <ele>1299.3591309</ele>
        <time>2011-09-08T12:00:16Z</time>
      </trkpt>
      <trkpt lat="44.30478" lon="6.151">
        <ele>1298.878418</ele>
        <time>2011-09-08T12:00:17Z</time>
      </trkpt>
      <trkpt lat="44.30468" lon="6.15071">
        <ele>1298.3977051</ele>
        <time>2011-09-08T12:00:23Z</time>
      </trkpt>
      <trkpt lat="44.30473" lon="6.15047">
        <ele>1299.8398438</ele>
        <time>2011-09-08T12:00:27Z</time>
      </trkpt>
      <trkpt lat="44.30473" lon="6.15041">
        <ele>1298.3977051</ele>
        <time>2011-09-08T12:00:28Z</time>
      </trkpt>
      <trkpt lat="44.30475" lon="6.15031">
        <ele>1298.878418</ele>
        <time>2011-09-08T12:00:32Z</time>
      </trkpt>
      <trkpt lat="44.30494" lon="6.15012">
        <ele>1297.9172363</ele>
        <time>2011-09-08T12:00:43Z</time>
      </trkpt>
      <trkpt lat="44.30509" lon="6.15003">
        <ele>1295.0332031</ele>
        <time>2011-09-08T12:00:57Z</time>
      </trkpt>
      <trkpt lat="44.30509" lon="6.15003">
        <ele>1294.0720215</ele>
        <time>2011-09-08T12:01:33Z</time>
      </trkpt>
      <trkpt lat="44.30509" lon="6.15003">
        <ele>1290.2265625</ele>
        <time>2011-09-08T12:01:47Z</time>
      </trkpt>
      <trkpt lat="44.30509" lon="6.15003">
        <ele>1288.784668</ele>
        <time>2011-09-08T12:01:52Z</time>
      </trkpt>
      <trkpt lat="44.3053" lon="6.14978">
        <ele>1287.8232422</ele>
        <time>2011-09-08T12:02:00Z</time>
      </trkpt>
      <trkpt lat="44.305" lon="6.15002">
        <ele>1286.3813477</ele>
        <time>2011-09-08T12:02:04Z</time>
      </trkpt>
      <trkpt lat="44.30553" lon="6.14966">
        <ele>1283.9780273</ele>
        <time>2011-09-08T12:02:12Z</time>
      </trkpt>
      <trkpt lat="44.30582" lon="6.14975">
        <ele>1280.6135254</ele>
        <time>2011-09-08T12:02:22Z</time>
      </trkpt>
      <trkpt lat="44.30587" lon="6.14975">
        <ele>1280.6135254</ele>
        <time>2011-09-08T12:02:23Z</time>
      </trkpt>
      <trkpt lat="44.3059" lon="6.14958">
        <ele>1280.6135254</ele>
        <time>2011-09-08T12:02:25Z</time>
      </trkpt>
      <trkpt lat="44.30594" lon="6.14946">
        <ele>1279.1713867</ele>
        <time>2011-09-08T12:02:28Z</time>
      </trkpt>
      <trkpt lat="44.30602" lon="6.14924">
        <ele>1278.2102051</ele>
        <time>2011-09-08T12:02:34Z</time>
      </trkpt>
      <trkpt lat="44.30613" lon="6.14914">
        <ele>1276.7683105</ele>
        <time>2011-09-08T12:02:37Z</time>
      </trkpt>
      <trkpt lat="44.3064" lon="6.149">
        <ele>1275.3259277</ele>
        <time>2011-09-08T12:02:43Z</time>
      </trkpt>
      <trkpt lat="44.30649" lon="6.14867">
        <ele>1273.4035645</ele>
        <time>2011-09-08T12:02:52Z</time>
      </trkpt>
      <trkpt lat="44.3065" lon="6.14855">
        <ele>1271.9614258</ele>
        <time>2011-09-08T12:02:58Z</time>
      </trkpt>
      <trkpt lat="44.30656" lon="6.14827">
        <ele>1270.0388184</ele>
        <time>2011-09-08T12:03:06Z</time>
      </trkpt>
      <trkpt lat="44.30672" lon="6.14784">
        <ele>1269.0776367</ele>
        <time>2011-09-08T12:03:15Z</time>
      </trkpt>
      <trkpt lat="44.30677" lon="6.14781">
        <ele>1269.0776367</ele>
        <time>2011-09-08T12:03:16Z</time>
      </trkpt>
      <trkpt lat="44.3071" lon="6.14765">
        <ele>1264.2709961</ele>
        <time>2011-09-08T12:03:27Z</time>
      </trkpt>
      <trkpt lat="44.30727" lon="6.14761">
        <ele>1263.3098145</ele>
        <time>2011-09-08T12:03:34Z</time>
      </trkpt>
      <trkpt lat="44.30728" lon="6.14777">
        <ele>1261.8679199</ele>
        <time>2011-09-08T12:03:42Z</time>
      </trkpt>
      <trkpt lat="44.30713" lon="6.14819">
        <ele>1258.9836426</ele>
        <time>2011-09-08T12:03:57Z</time>
      </trkpt>
      <trkpt lat="44.30716" lon="6.14852">
        <ele>1256.5803223</ele>
        <time>2011-09-08T12:04:09Z</time>
      </trkpt>
      <trkpt lat="44.30724" lon="6.14851">
        <ele>1255.1384277</ele>
        <time>2011-09-08T12:04:12Z</time>
      </trkpt>
      <trkpt lat="44.30725" lon="6.1485">
        <ele>1255.1384277</ele>
        <time>2011-09-08T12:04:14Z</time>
      </trkpt>
      <trkpt lat="44.30751" lon="6.14846">
        <ele>1250.8125</ele>
        <time>2011-09-08T12:04:27Z</time>
      </trkpt>
      <trkpt lat="44.30767" lon="6.1485">
        <ele>1250.3320313</ele>
        <time>2011-09-08T12:04:30Z</time>
      </trkpt>
      <trkpt lat="44.30781" lon="6.14845">
        <ele>1247.447998</ele>
        <time>2011-09-08T12:04:40Z</time>
      </trkpt>
      <trkpt lat="44.30796" lon="6.1484">
        <ele>1244.5639648</ele>
        <time>2011-09-08T12:04:51Z</time>
      </trkpt>
      <trkpt lat="44.30813" lon="6.14843">
        <ele>1241.6799316</ele>
        <time>2011-09-08T12:05:03Z</time>
      </trkpt>
      <trkpt lat="44.30824" lon="6.14838">
        <ele>1240.7185059</ele>
        <time>2011-09-08T12:05:07Z</time>
      </trkpt>
      <trkpt lat="44.30827" lon="6.14838">
        <ele>1239.7573242</ele>
        <time>2011-09-08T12:05:09Z</time>
      </trkpt>
      <trkpt lat="44.30829" lon="6.14824">
        <ele>1239.2766113</ele>
        <time>2011-09-08T12:05:21Z</time>
      </trkpt>
      <trkpt lat="44.30838" lon="6.14817">
        <ele>1237.8347168</ele>
        <time>2011-09-08T12:05:36Z</time>
      </trkpt>
      <trkpt lat="44.30844" lon="6.14817">
        <ele>1236.873291</ele>
        <time>2011-09-08T12:05:38Z</time>
      </trkpt>
      <trkpt lat="44.30848" lon="6.1482">
        <ele>1235.9121094</ele>
        <time>2011-09-08T12:05:40Z</time>
      </trkpt>
      <trkpt lat="44.30859" lon="6.14842">
        <ele>1232.0668945</ele>
        <time>2011-09-08T12:05:46Z</time>
      </trkpt>
      <trkpt lat="44.30861" lon="6.14846">
        <ele>1232.0668945</ele>
        <time>2011-09-08T12:05:47Z</time>
      </trkpt>
      <trkpt lat="44.30881" lon="6.14863">
        <ele>1229.1828613</ele>
        <time>2011-09-08T12:05:52Z</time>
      </trkpt>
      <trkpt lat="44.30884" lon="6.14874">
        <ele>1228.2216797</ele>
        <time>2011-09-08T12:05:54Z</time>
      </trkpt>
      <trkpt lat="44.30887" lon="6.14933">
        <ele>1224.8569336</ele>
        <time>2011-09-08T12:06:06Z</time>
      </trkpt>
      <trkpt lat="44.30887" lon="6.14942">
        <ele>1224.8569336</ele>
        <time>2011-09-08T12:06:07Z</time>
      </trkpt>
      <trkpt lat="44.30894" lon="6.14978">
        <ele>1224.3762207</ele>
        <time>2011-09-08T12:06:13Z</time>
      </trkpt>
      <trkpt lat="44.30892" lon="6.14994">
        <ele>1224.3762207</ele>
        <time>2011-09-08T12:06:16Z</time>
      </trkpt>
      <trkpt lat="44.30887" lon="6.15022">
        <ele>1222.9343262</ele>
        <time>2011-09-08T12:06:20Z</time>
      </trkpt>
      <trkpt lat="44.30886" lon="6.1506">
        <ele>1219.5698242</ele>
        <time>2011-09-08T12:06:30Z</time>
      </trkpt>
      <trkpt lat="44.30892" lon="6.15078">
        <ele>1217.1665039</ele>
        <time>2011-09-08T12:06:35Z</time>
      </trkpt>
      <trkpt lat="44.30893" lon="6.15083">
        <ele>1216.2050781</ele>
        <time>2011-09-08T12:06:36Z</time>
      </trkpt>
      <trkpt lat="44.30897" lon="6.15098">
        <ele>1213.3212891</ele>
        <time>2011-09-08T12:06:40Z</time>
      </trkpt>
      <trkpt lat="44.30898" lon="6.15102">
        <ele>1212.3598633</ele>
        <time>2011-09-08T12:06:41Z</time>
      </trkpt>
      <trkpt lat="44.30898" lon="6.15125">
        <ele>1213.8017578</ele>
        <time>2011-09-08T12:06:44Z</time>
      </trkpt>
      <trkpt lat="44.30892" lon="6.15137">
        <ele>1212.3598633</ele>
        <time>2011-09-08T12:06:47Z</time>
      </trkpt>
      <trkpt lat="44.30887" lon="6.15148">
        <ele>1211.3984375</ele>
        <time>2011-09-08T12:06:49Z</time>
      </trkpt>
      <trkpt lat="44.30874" lon="6.15177">
        <ele>1210.4370117</ele>
        <time>2011-09-08T12:06:53Z</time>
      </trkpt>
      <trkpt lat="44.30862" lon="6.15195">
        <ele>1209.4758301</ele>
        <time>2011-09-08T12:06:56Z</time>
      </trkpt>
      <trkpt lat="44.30861" lon="6.15219">
        <ele>1208.9951172</ele>
        <time>2011-09-08T12:07:00Z</time>
      </trkpt>
      <trkpt lat="44.30861" lon="6.15239">
        <ele>1208.0339355</ele>
        <time>2011-09-08T12:07:03Z</time>
      </trkpt>
      <trkpt lat="44.30865" lon="6.15271">
        <ele>1206.5917969</ele>
        <time>2011-09-08T12:07:07Z</time>
      </trkpt>
      <trkpt lat="44.30871" lon="6.15302">
        <ele>1205.1499023</ele>
        <time>2011-09-08T12:07:10Z</time>
      </trkpt>
      <trkpt lat="44.30881" lon="6.15327">
        <ele>1203.7080078</ele>
        <time>2011-09-08T12:07:13Z</time>
      </trkpt>
      <trkpt lat="44.30893" lon="6.15348">
        <ele>1201.3046875</ele>
        <time>2011-09-08T12:07:15Z</time>
      </trkpt>
    </trkseg>
  </trk>
</gpx>